TAP374 SBGL-LPPT
Flight info
| Callsign | TAP374 |
|---|---|
| Flight time | 8h 42m |
| Altitude | 33000 |
| Route | UTMI1A TISVA UL206 ENRUV UM661 VUKIR/N0491F350 UM661 ERETU UN857 GUNET/N0481F370 N857 BIPET Z27 ODEGI/N0474F380 N873 SAMAR DCT BEXAL DCT LUVUP LUVU3B |
| Aircraft | L101/H-SDFHIRWXY/S |
Departure
| Time | 2026-05-07 09:25 |
|---|---|
| Airport | Rio Galeão – Tom Jobim International Airport (SBGL) |
Arrival
| Time | 2026-05-07 18:07 |
|---|---|
| Airport | Lisbon Humberto Delgado Airport (LPPT) |
| Time | Latitude | Longitude | Altitude | Speed | Heading |
|---|---|---|---|---|---|
| 2026-05-07 08:19 | -22.81890 | -43.24297 | 25 ft | 0 kts | 306° |
| 2026-05-07 09:05 | -22.81891 | -43.24296 | 26 ft | 2 kts | 306° |
| 2026-05-07 09:05 | -22.81905 | -43.24273 | 35 ft | 4 kts | 301° |
| 2026-05-07 09:06 | -22.81918 | -43.24247 | 26 ft | 4 kts | 292° |
| 2026-05-07 09:06 | -22.81926 | -43.24220 | 26 ft | 4 kts | 274° |
| 2026-05-07 09:06 | -22.81921 | -43.24196 | 24 ft | 4 kts | 220° |
| 2026-05-07 09:06 | -22.81933 | -43.24204 | 26 ft | 4 kts | 216° |
| 2026-05-07 09:07 | -22.81955 | -43.24221 | 26 ft | 4 kts | 216° |
| 2026-05-07 09:07 | -22.81977 | -43.24238 | 26 ft | 4 kts | 216° |
| 2026-05-07 09:07 | -22.81992 | -43.24250 | 26 ft | 0 kts | 216° |
| 2026-05-07 09:13 | -22.81993 | -43.24250 | 26 ft | 1 kts | 216° |
| 2026-05-07 09:13 | -22.82002 | -43.24257 | 25 ft | 3 kts | 216° |
| 2026-05-07 09:13 | -22.82024 | -43.24274 | 31 ft | 5 kts | 216° |
| 2026-05-07 09:14 | -22.82057 | -43.24300 | 30 ft | 7 kts | 216° |
| 2026-05-07 09:14 | -22.82088 | -43.24333 | 32 ft | 5 kts | 253° |
| 2026-05-07 09:14 | -22.82076 | -43.24373 | 28 ft | 6 kts | 300° |
| 2026-05-07 09:14 | -22.82050 | -43.24417 | 32 ft | 8 kts | 304° |
| 2026-05-07 09:15 | -22.82016 | -43.24470 | 27 ft | 9 kts | 305° |
| 2026-05-07 09:15 | -22.81975 | -43.24530 | 30 ft | 10 kts | 306° |
| 2026-05-07 09:15 | -22.81932 | -43.24598 | 28 ft | 11 kts | 293° |
| 2026-05-07 09:15 | -22.81939 | -43.24678 | 30 ft | 11 kts | 281° |
| 2026-05-07 09:16 | -22.81897 | -43.24751 | 29 ft | 12 kts | 305° |
| 2026-05-07 09:16 | -22.81847 | -43.24827 | 32 ft | 13 kts | 306° |
| 2026-05-07 09:16 | -22.81792 | -43.24910 | 29 ft | 14 kts | 306° |
| 2026-05-07 09:16 | -22.81732 | -43.24999 | 28 ft | 15 kts | 305° |
| 2026-05-07 09:17 | -22.81670 | -43.25094 | 28 ft | 16 kts | 306° |
| 2026-05-07 09:17 | -22.81604 | -43.25194 | 32 ft | 17 kts | 306° |
| 2026-05-07 09:17 | -22.81533 | -43.25300 | 29 ft | 18 kts | 306° |
| 2026-05-07 09:17 | -22.81460 | -43.25410 | 30 ft | 18 kts | 306° |
| 2026-05-07 09:18 | -22.81385 | -43.25525 | 30 ft | 19 kts | 305° |
| 2026-05-07 09:18 | -22.81307 | -43.25644 | 31 ft | 20 kts | 306° |
| 2026-05-07 09:18 | -22.81228 | -43.25762 | 26 ft | 20 kts | 305° |
| 2026-05-07 09:18 | -22.81150 | -43.25880 | 26 ft | 14 kts | 305° |
| 2026-05-07 09:19 | -22.81091 | -43.25923 | 27 ft | 10 kts | 11° |
| 2026-05-07 09:19 | -22.81032 | -43.25887 | 27 ft | 10 kts | 35° |
| 2026-05-07 09:19 | -22.80970 | -43.25840 | 26 ft | 11 kts | 36° |
| 2026-05-07 09:19 | -22.80903 | -43.25788 | 27 ft | 12 kts | 36° |
| 2026-05-07 09:20 | -22.80831 | -43.25732 | 28 ft | 12 kts | 36° |
| 2026-05-07 09:20 | -22.80769 | -43.25685 | 30 ft | 10 kts | 36° |
| 2026-05-07 09:20 | -22.80715 | -43.25642 | 33 ft | 10 kts | 36° |
| 2026-05-07 09:20 | -22.80655 | -43.25596 | 33 ft | 11 kts | 36° |
| 2026-05-07 09:21 | -22.80591 | -43.25546 | 33 ft | 12 kts | 36° |
| 2026-05-07 09:21 | -22.80526 | -43.25493 | 34 ft | 12 kts | 42° |
| 2026-05-07 09:21 | -22.80457 | -43.25430 | 34 ft | 14 kts | 17° |
| 2026-05-07 09:21 | -22.80371 | -43.25467 | 33 ft | 14 kts | 328° |
| 2026-05-07 09:22 | -22.80280 | -43.25516 | 31 ft | 15 kts | 6° |
| 2026-05-07 09:22 | -22.80201 | -43.25479 | 30 ft | 12 kts | 26° |
| 2026-05-07 09:22 | -22.80163 | -43.25413 | 28 ft | 7 kts | 75° |
| 2026-05-07 09:22 | -22.80161 | -43.25407 | 29 ft | 0 kts | 75° |
| 2026-05-07 09:24 | -22.80160 | -43.25400 | 30 ft | 2 kts | 75° |
| 2026-05-07 09:24 | -22.80140 | -43.25322 | 30 ft | 31 kts | 75° |
| 2026-05-07 09:24 | -22.80011 | -43.24820 | 33 ft | 105 kts | 75° |
| 2026-05-07 09:24 | -22.79749 | -43.23827 | 35 ft | 167 kts | 73° |
| 2026-05-07 09:25 | -22.79414 | -43.22577 | 636 ft | 178 kts | 72° |
| 2026-05-07 09:25 | -22.79054 | -43.21269 | 1407 ft | 184 kts | 72° |
| 2026-05-07 09:25 | -22.78678 | -43.19932 | 2262 ft | 186 kts | 71° |
| 2026-05-07 09:25 | -22.78303 | -43.18587 | 3116 ft | 186 kts | 73° |
| 2026-05-07 09:26 | -22.78012 | -43.17132 | 3416 ft | 208 kts | 77° |
| 2026-05-07 09:26 | -22.77707 | -43.15436 | 3438 ft | 250 kts | 78° |
| 2026-05-07 09:26 | -22.77357 | -43.13527 | 3324 ft | 262 kts | 77° |
| 2026-05-07 09:26 | -22.76988 | -43.11594 | 3305 ft | 265 kts | 77° |
| 2026-05-07 09:27 | -22.76600 | -43.09644 | 3365 ft | 265 kts | 77° |
| 2026-05-07 09:27 | -22.76194 | -43.07669 | 3502 ft | 276 kts | 76° |
| 2026-05-07 09:27 | -22.75341 | -43.03637 | 5197 ft | 269 kts | 76° |
| 2026-05-07 09:28 | -22.74908 | -43.01622 | 5598 ft | 278 kts | 76° |
| 2026-05-07 09:28 | -22.74470 | -42.99587 | 5501 ft | 275 kts | 76° |
| 2026-05-07 09:28 | -22.74043 | -42.97582 | 5491 ft | 270 kts | 76° |
| 2026-05-07 09:28 | -22.73620 | -42.95586 | 5609 ft | 273 kts | 76° |
| 2026-05-07 09:29 | -22.73192 | -42.93570 | 5744 ft | 274 kts | 76° |
| 2026-05-07 09:29 | -22.72772 | -42.91584 | 5851 ft | 274 kts | 76° |
| 2026-05-07 09:29 | -22.72346 | -42.89568 | 5964 ft | 277 kts | 76° |
| 2026-05-07 09:29 | -22.71904 | -42.87477 | 6428 ft | 287 kts | 76° |
| 2026-05-07 09:30 | -22.71470 | -42.85407 | 7333 ft | 275 kts | 76° |
| 2026-05-07 09:30 | -22.71036 | -42.83398 | 8003 ft | 278 kts | 75° |
| 2026-05-07 09:30 | -22.70586 | -42.81326 | 8318 ft | 292 kts | 75° |
| 2026-05-07 09:30 | -22.70128 | -42.79178 | 9102 ft | 288 kts | 75° |
| 2026-05-07 09:31 | -22.69680 | -42.77086 | 9952 ft | 286 kts | 75° |
| 2026-05-07 09:31 | -22.69217 | -42.74939 | 10265 ft | 301 kts | 75° |
| 2026-05-07 09:31 | -22.68724 | -42.72653 | 10405 ft | 321 kts | 75° |
| 2026-05-07 09:31 | -22.68200 | -42.70212 | 10526 ft | 342 kts | 76° |
| 2026-05-07 09:32 | -22.67651 | -42.67638 | 10620 ft | 362 kts | 76° |
| 2026-05-07 09:32 | -22.67072 | -42.64907 | 10762 ft | 380 kts | 76° |
| 2026-05-07 09:32 | -22.66478 | -42.62106 | 11216 ft | 387 kts | 76° |
| 2026-05-07 09:32 | -22.65880 | -42.59298 | 12093 ft | 380 kts | 76° |
| 2026-05-07 09:33 | -22.65278 | -42.56494 | 12558 ft | 387 kts | 76° |
| 2026-05-07 09:33 | -22.64657 | -42.53611 | 12965 ft | 394 kts | 76° |
| 2026-05-07 09:33 | -22.64034 | -42.50713 | 13624 ft | 395 kts | 76° |
| 2026-05-07 09:33 | -22.63415 | -42.47825 | 14101 ft | 400 kts | 76° |
| 2026-05-07 09:34 | -22.62786 | -42.44881 | 14620 ft | 403 kts | 77° |
| 2026-05-07 09:34 | -22.62152 | -42.41918 | 15161 ft | 405 kts | 77° |
| 2026-05-07 09:34 | -22.61507 | -42.38925 | 15655 ft | 410 kts | 77° |
| 2026-05-07 09:34 | -22.60853 | -42.35911 | 16177 ft | 413 kts | 77° |
| 2026-05-07 09:35 | -22.60189 | -42.32874 | 16712 ft | 416 kts | 77° |
| 2026-05-07 09:35 | -22.59496 | -42.29810 | 17272 ft | 420 kts | 74° |
| 2026-05-07 09:35 | -22.58392 | -42.26916 | 17751 ft | 426 kts | 59° |
| 2026-05-07 09:35 | -22.56491 | -42.24439 | 18299 ft | 431 kts | 43° |
| 2026-05-07 09:36 | -22.54202 | -42.22309 | 18773 ft | 435 kts | 41° |
| 2026-05-07 09:36 | -22.51935 | -42.20122 | 19246 ft | 438 kts | 44° |
| 2026-05-07 09:36 | -22.49746 | -42.17807 | 19712 ft | 442 kts | 46° |
| 2026-05-07 09:36 | -22.47535 | -42.15474 | 20211 ft | 446 kts | 44° |
| 2026-05-07 09:37 | -22.45227 | -42.13212 | 20725 ft | 450 kts | 42° |
| 2026-05-07 09:37 | -22.42822 | -42.11010 | 21231 ft | 454 kts | 40° |
| 2026-05-07 09:37 | -22.40371 | -42.08822 | 21749 ft | 458 kts | 40° |
| 2026-05-07 09:37 | -22.37909 | -42.06614 | 22278 ft | 462 kts | 40° |
| 2026-05-07 09:38 | -22.35461 | -42.04397 | 22800 ft | 466 kts | 41° |
| 2026-05-07 09:38 | -22.32965 | -42.02130 | 23339 ft | 470 kts | 41° |
| 2026-05-07 09:38 | -22.30443 | -41.99849 | 23856 ft | 475 kts | 40° |
| 2026-05-07 09:38 | -22.27885 | -41.97549 | 24311 ft | 480 kts | 40° |
| 2026-05-07 09:39 | -22.25304 | -41.95236 | 24779 ft | 484 kts | 40° |
| 2026-05-07 09:39 | -22.22697 | -41.92898 | 25241 ft | 489 kts | 41° |
| 2026-05-07 09:39 | -22.20057 | -41.90529 | 25722 ft | 494 kts | 41° |
| 2026-05-07 09:39 | -22.17422 | -41.88167 | 26174 ft | 499 kts | 41° |
| 2026-05-07 09:40 | -22.14739 | -41.85766 | 26635 ft | 504 kts | 41° |
| 2026-05-07 09:40 | -22.12027 | -41.83341 | 27060 ft | 508 kts | 41° |
| 2026-05-07 09:40 | -22.09289 | -41.80899 | 27520 ft | 513 kts | 41° |
| 2026-05-07 09:40 | -22.06515 | -41.78426 | 27969 ft | 517 kts | 41° |
| 2026-05-07 09:41 | -22.03731 | -41.75942 | 28447 ft | 521 kts | 41° |
| 2026-05-07 09:41 | -22.00930 | -41.73440 | 28862 ft | 525 kts | 41° |
| 2026-05-07 09:41 | -21.98115 | -41.70928 | 29365 ft | 527 kts | 41° |
| 2026-05-07 09:41 | -21.95273 | -41.68393 | 29967 ft | 527 kts | 41° |
| 2026-05-07 09:42 | -21.92445 | -41.65877 | 30470 ft | 527 kts | 41° |
| 2026-05-07 09:42 | -21.89612 | -41.63358 | 30921 ft | 528 kts | 42° |
| 2026-05-07 09:42 | -21.86808 | -41.60865 | 31354 ft | 528 kts | 42° |
| 2026-05-07 09:42 | -21.83971 | -41.58339 | 31801 ft | 528 kts | 42° |
| 2026-05-07 09:43 | -21.81132 | -41.55812 | 32244 ft | 529 kts | 42° |
| 2026-05-07 09:43 | -21.78302 | -41.53295 | 32732 ft | 528 kts | 42° |
| 2026-05-07 09:43 | -21.75454 | -41.50762 | 32889 ft | 532 kts | 42° |
| 2026-05-07 09:43 | -21.72590 | -41.48216 | 33059 ft | 532 kts | 42° |
| 2026-05-07 09:44 | -21.69734 | -41.45681 | 33099 ft | 533 kts | 42° |
| 2026-05-07 09:44 | -21.64015 | -41.40610 | 33126 ft | 532 kts | 42° |
| 2026-05-07 09:45 | -21.58338 | -41.35590 | 33135 ft | 532 kts | 42° |
| 2026-05-07 09:45 | -21.52629 | -41.30534 | 33137 ft | 530 kts | 42° |
| 2026-05-07 09:46 | -21.46945 | -41.25508 | 33135 ft | 529 kts | 41° |
| 2026-05-07 09:46 | -21.41261 | -41.20495 | 33139 ft | 529 kts | 42° |
| 2026-05-07 09:47 | -21.35615 | -41.15507 | 33136 ft | 529 kts | 42° |
| 2026-05-07 09:47 | -21.29927 | -41.10493 | 33140 ft | 528 kts | 41° |
| 2026-05-07 09:48 | -21.24229 | -41.05487 | 33133 ft | 529 kts | 41° |
| 2026-05-07 09:48 | -21.18536 | -41.00484 | 33139 ft | 529 kts | 41° |
| 2026-05-07 09:49 | -21.12875 | -40.95507 | 33138 ft | 529 kts | 41° |
| 2026-05-07 09:49 | -21.07175 | -40.90504 | 33144 ft | 529 kts | 41° |
| 2026-05-07 09:50 | -21.01484 | -40.85509 | 33143 ft | 527 kts | 41° |
| 2026-05-07 09:50 | -20.95805 | -40.80531 | 33140 ft | 527 kts | 41° |
| 2026-05-07 09:51 | -20.90162 | -40.75590 | 33143 ft | 527 kts | 41° |
| 2026-05-07 09:51 | -20.84482 | -40.70626 | 33144 ft | 527 kts | 41° |
| 2026-05-07 09:52 | -20.78638 | -40.65885 | 33148 ft | 527 kts | 35° |
| 2026-05-07 09:52 | -20.72549 | -40.61615 | 33147 ft | 526 kts | 35° |
| 2026-05-07 09:53 | -20.66482 | -40.57249 | 33157 ft | 525 kts | 36° |
| 2026-05-07 09:53 | -20.60412 | -40.52886 | 33154 ft | 526 kts | 35° |
| 2026-05-07 09:54 | -20.54314 | -40.48545 | 33154 ft | 526 kts | 35° |
| 2026-05-07 09:54 | -20.48230 | -40.44207 | 33151 ft | 524 kts | 34° |
| 2026-05-07 09:55 | -20.42208 | -40.39921 | 33153 ft | 523 kts | 34° |
| 2026-05-07 09:55 | -20.36155 | -40.35611 | 33153 ft | 523 kts | 34° |
| 2026-05-07 09:56 | -20.30093 | -40.31314 | 33147 ft | 523 kts | 34° |
| 2026-05-07 09:56 | -20.24028 | -40.27032 | 33101 ft | 523 kts | 34° |
| 2026-05-07 09:57 | -20.17959 | -40.22823 | 33098 ft | 522 kts | 34° |
| 2026-05-07 09:57 | -20.11889 | -40.18599 | 33116 ft | 520 kts | 34° |
| 2026-05-07 09:58 | -20.06862 | -40.15087 | 33125 ft | 520 kts | 34° |
| 2026-05-07 09:58 | -20.00790 | -40.10865 | 33136 ft | 520 kts | 34° |
| 2026-05-07 09:59 | -19.94736 | -40.06658 | 33142 ft | 520 kts | 34° |
| 2026-05-07 09:59 | -19.88683 | -40.02450 | 33143 ft | 520 kts | 34° |
| 2026-05-07 10:00 | -19.82676 | -39.98280 | 33141 ft | 518 kts | 33° |
| 2026-05-07 10:00 | -19.76640 | -39.94096 | 33139 ft | 518 kts | 34° |
| 2026-05-07 10:01 | -19.70608 | -39.89932 | 33145 ft | 518 kts | 32° |
| 2026-05-07 10:01 | -19.64519 | -39.85808 | 33139 ft | 518 kts | 34° |
| 2026-05-07 10:02 | -19.58537 | -39.81533 | 33139 ft | 518 kts | 34° |
| 2026-05-07 10:02 | -19.52550 | -39.77288 | 33140 ft | 517 kts | 34° |
| 2026-05-07 10:03 | -19.46601 | -39.73076 | 33130 ft | 517 kts | 34° |
| 2026-05-07 10:03 | -19.40620 | -39.68842 | 33135 ft | 517 kts | 34° |
| 2026-05-07 10:04 | -19.34638 | -39.64612 | 33134 ft | 517 kts | 34° |
| 2026-05-07 10:04 | -19.28657 | -39.60386 | 33134 ft | 517 kts | 34° |
| 2026-05-07 10:05 | -19.22674 | -39.56163 | 33130 ft | 517 kts | 34° |
| 2026-05-07 10:05 | -19.16693 | -39.51944 | 33134 ft | 516 kts | 34° |
| 2026-05-07 10:06 | -19.10716 | -39.47731 | 33134 ft | 515 kts | 34° |
| 2026-05-07 10:06 | -19.04782 | -39.43553 | 33125 ft | 516 kts | 34° |
| 2026-05-07 10:07 | -18.98806 | -39.39348 | 33125 ft | 516 kts | 34° |
| 2026-05-07 10:07 | -18.92828 | -39.35146 | 33132 ft | 515 kts | 34° |
| 2026-05-07 10:08 | -18.86874 | -39.30963 | 33125 ft | 512 kts | 34° |
| 2026-05-07 10:08 | -18.80940 | -39.26800 | 33118 ft | 511 kts | 34° |
| 2026-05-07 10:09 | -18.75054 | -39.22674 | 33127 ft | 511 kts | 34° |
| 2026-05-07 10:09 | -18.69129 | -39.18525 | 33125 ft | 511 kts | 34° |
| 2026-05-07 10:10 | -18.63196 | -39.14372 | 33120 ft | 511 kts | 34° |
| 2026-05-07 10:10 | -18.57264 | -39.10223 | 33119 ft | 511 kts | 34° |
| 2026-05-07 10:11 | -18.51353 | -39.06094 | 33118 ft | 509 kts | 34° |
| 2026-05-07 10:11 | -18.45488 | -39.02000 | 33115 ft | 508 kts | 34° |
| 2026-05-07 10:12 | -18.39544 | -38.97945 | 33119 ft | 508 kts | 31° |
| 2026-05-07 10:12 | -18.33409 | -38.94217 | 33112 ft | 509 kts | 31° |
| 2026-05-07 10:13 | -18.27445 | -38.90270 | 33117 ft | 508 kts | 34° |
| 2026-05-07 10:13 | -18.21555 | -38.86151 | 33115 ft | 508 kts | 34° |
| 2026-05-07 10:14 | -18.15656 | -38.82036 | 33113 ft | 508 kts | 34° |
| 2026-05-07 10:14 | -18.09755 | -38.77922 | 33114 ft | 508 kts | 34° |
| 2026-05-07 10:15 | -18.03869 | -38.73798 | 33114 ft | 509 kts | 34° |
| 2026-05-07 10:15 | -17.97974 | -38.69673 | 33116 ft | 508 kts | 34° |
| 2026-05-07 10:16 | -17.92073 | -38.65549 | 33114 ft | 509 kts | 34° |
| 2026-05-07 10:16 | -17.86219 | -38.61476 | 33114 ft | 507 kts | 34° |
| 2026-05-07 10:17 | -17.80336 | -38.57375 | 33112 ft | 507 kts | 34° |
| 2026-05-07 10:17 | -17.74455 | -38.53259 | 33108 ft | 507 kts | 34° |
| 2026-05-07 10:18 | -17.68576 | -38.49153 | 33108 ft | 507 kts | 34° |
| 2026-05-07 10:18 | -17.62724 | -38.45080 | 33104 ft | 507 kts | 34° |
| 2026-05-07 10:19 | -17.56824 | -38.40973 | 33110 ft | 507 kts | 34° |
| 2026-05-07 10:19 | -17.50970 | -38.36902 | 33108 ft | 507 kts | 34° |
| 2026-05-07 10:20 | -17.45079 | -38.32814 | 33104 ft | 507 kts | 34° |
| 2026-05-07 10:20 | -17.39186 | -38.28726 | 33106 ft | 508 kts | 33° |
| 2026-05-07 10:21 | -17.33283 | -38.24651 | 33109 ft | 509 kts | 34° |
| 2026-05-07 10:21 | -17.27380 | -38.20557 | 33105 ft | 509 kts | 34° |
| 2026-05-07 10:22 | -17.21479 | -38.16452 | 33101 ft | 509 kts | 34° |
| 2026-05-07 10:22 | -17.15573 | -38.12367 | 33097 ft | 509 kts | 33° |
| 2026-05-07 10:23 | -17.09693 | -38.08310 | 33099 ft | 509 kts | 33° |
| 2026-05-07 10:23 | -17.03779 | -38.04231 | 33095 ft | 509 kts | 33° |
| 2026-05-07 10:24 | -16.97850 | -38.00138 | 33091 ft | 510 kts | 33° |
| 2026-05-07 10:24 | -16.91966 | -37.96081 | 33093 ft | 509 kts | 33° |
| 2026-05-07 10:25 | -16.86050 | -37.91995 | 33094 ft | 509 kts | 33° |
| 2026-05-07 10:25 | -16.80147 | -37.87910 | 33092 ft | 509 kts | 33° |
| 2026-05-07 10:26 | -16.74220 | -37.83838 | 33093 ft | 509 kts | 33° |
| 2026-05-07 10:26 | -16.68335 | -37.79807 | 33094 ft | 509 kts | 33° |
| 2026-05-07 10:27 | -16.62423 | -37.75741 | 33090 ft | 508 kts | 33° |
| 2026-05-07 10:27 | -16.56514 | -37.71680 | 33094 ft | 508 kts | 33° |
| 2026-05-07 10:28 | -16.50637 | -37.67657 | 33088 ft | 508 kts | 33° |
| 2026-05-07 10:28 | -16.44726 | -37.63615 | 33084 ft | 508 kts | 33° |
| 2026-05-07 10:29 | -16.38822 | -37.59559 | 33085 ft | 507 kts | 33° |
| 2026-05-07 10:29 | -16.32919 | -37.55521 | 33085 ft | 507 kts | 33° |
| 2026-05-07 10:30 | -16.24065 | -37.49473 | 33083 ft | 507 kts | 33° |
| 2026-05-07 10:30 | -16.18154 | -37.45439 | 33079 ft | 507 kts | 32° |
| 2026-05-07 10:31 | -16.12208 | -37.41512 | 33084 ft | 506 kts | 28° |
| 2026-05-07 10:31 | -16.05962 | -37.38106 | 33086 ft | 506 kts | 26° |
| 2026-05-07 10:32 | -15.99761 | -37.34717 | 33080 ft | 506 kts | 27° |
| 2026-05-07 10:32 | -15.93538 | -37.31265 | 33077 ft | 505 kts | 26° |
| 2026-05-07 10:33 | -15.87323 | -37.27863 | 33080 ft | 504 kts | 26° |
| 2026-05-07 10:33 | -15.81147 | -37.24480 | 33081 ft | 505 kts | 26° |
| 2026-05-07 10:34 | -15.74932 | -37.21072 | 33072 ft | 504 kts | 26° |
| 2026-05-07 10:34 | -15.68717 | -37.17679 | 33069 ft | 503 kts | 26° |
| 2026-05-07 10:35 | -15.62521 | -37.14308 | 33075 ft | 502 kts | 26° |
| 2026-05-07 10:35 | -15.56372 | -37.10941 | 33072 ft | 502 kts | 26° |
| 2026-05-07 10:36 | -15.50188 | -37.07564 | 33071 ft | 502 kts | 26° |
| 2026-05-07 10:36 | -15.44007 | -37.04200 | 33067 ft | 502 kts | 25° |
| 2026-05-07 10:37 | -15.37818 | -37.00826 | 33069 ft | 501 kts | 25° |
| 2026-05-07 10:37 | -15.31684 | -36.97481 | 33069 ft | 501 kts | 25° |
| 2026-05-07 10:38 | -15.25518 | -36.94125 | 33073 ft | 500 kts | 25° |
| 2026-05-07 10:38 | -15.19343 | -36.90775 | 33070 ft | 500 kts | 25° |
| 2026-05-07 10:39 | -15.13172 | -36.87419 | 33069 ft | 500 kts | 25° |
| 2026-05-07 10:39 | -15.06996 | -36.84074 | 33067 ft | 500 kts | 25° |
| 2026-05-07 10:40 | -15.00850 | -36.80748 | 33071 ft | 500 kts | 25° |
| 2026-05-07 10:40 | -14.94689 | -36.77388 | 33045 ft | 500 kts | 25° |
| 2026-05-07 10:41 | -14.88548 | -36.74054 | 33078 ft | 496 kts | 25° |
| 2026-05-07 10:41 | -14.82445 | -36.70762 | 33062 ft | 493 kts | 25° |
| 2026-05-07 10:42 | -14.76369 | -36.67472 | 33078 ft | 492 kts | 25° |
| 2026-05-07 10:42 | -14.70341 | -36.64218 | 33074 ft | 492 kts | 25° |
| 2026-05-07 10:43 | -14.64262 | -36.60929 | 33054 ft | 493 kts | 25° |
| 2026-05-07 10:43 | -14.58172 | -36.57650 | 33073 ft | 493 kts | 25° |
| 2026-05-07 10:44 | -14.52121 | -36.54387 | 33058 ft | 493 kts | 25° |
| 2026-05-07 10:44 | -14.46045 | -36.51098 | 33070 ft | 493 kts | 25° |
| 2026-05-07 10:45 | -14.39964 | -36.47809 | 33069 ft | 493 kts | 25° |
| 2026-05-07 10:45 | -14.33869 | -36.44521 | 33044 ft | 495 kts | 25° |
| 2026-05-07 10:46 | -14.28774 | -36.41794 | 33063 ft | 495 kts | 25° |
| 2026-05-07 10:46 | -14.22661 | -36.38496 | 33048 ft | 496 kts | 25° |
| 2026-05-07 10:47 | -14.16540 | -36.35209 | 33063 ft | 495 kts | 25° |
| 2026-05-07 10:47 | -14.10464 | -36.31934 | 33056 ft | 495 kts | 25° |
| 2026-05-07 10:48 | -14.04340 | -36.28644 | 33055 ft | 495 kts | 25° |
| 2026-05-07 10:48 | -13.98226 | -36.25356 | 33058 ft | 495 kts | 25° |
| 2026-05-07 10:49 | -13.92116 | -36.22081 | 33050 ft | 495 kts | 24° |
| 2026-05-07 10:49 | -13.86008 | -36.18821 | 33051 ft | 494 kts | 25° |
| 2026-05-07 10:50 | -13.79952 | -36.15571 | 33054 ft | 492 kts | 25° |
| 2026-05-07 10:50 | -13.73869 | -36.12314 | 33047 ft | 492 kts | 25° |
| 2026-05-07 10:51 | -13.67783 | -36.09057 | 33050 ft | 492 kts | 25° |
| 2026-05-07 10:51 | -13.61735 | -36.05819 | 33047 ft | 492 kts | 25° |
| 2026-05-07 10:52 | -13.55663 | -36.02569 | 33042 ft | 492 kts | 25° |
| 2026-05-07 10:52 | -13.49590 | -35.99325 | 33047 ft | 491 kts | 25° |
| 2026-05-07 10:53 | -13.43518 | -35.96085 | 33044 ft | 491 kts | 25° |
| 2026-05-07 10:53 | -13.37462 | -35.92847 | 33046 ft | 491 kts | 25° |
| 2026-05-07 10:54 | -13.31432 | -35.89630 | 33041 ft | 491 kts | 25° |
| 2026-05-07 10:54 | -13.25362 | -35.86393 | 33045 ft | 491 kts | 25° |
| 2026-05-07 10:55 | -13.19287 | -35.83163 | 33046 ft | 491 kts | 25° |
| 2026-05-07 10:55 | -13.13222 | -35.79916 | 33042 ft | 491 kts | 25° |
| 2026-05-07 10:56 | -13.07161 | -35.76658 | 33045 ft | 491 kts | 25° |
| 2026-05-07 10:56 | -13.01142 | -35.73427 | 33038 ft | 490 kts | 25° |
| 2026-05-07 10:57 | -12.95095 | -35.70180 | 33045 ft | 489 kts | 25° |
| 2026-05-07 10:57 | -12.89063 | -35.66943 | 33043 ft | 489 kts | 25° |
| 2026-05-07 10:58 | -12.83058 | -35.63723 | 33040 ft | 489 kts | 25° |
| 2026-05-07 10:58 | -12.77020 | -35.60487 | 33042 ft | 490 kts | 25° |
| 2026-05-07 10:59 | -12.70966 | -35.57247 | 33034 ft | 491 kts | 25° |
| 2026-05-07 10:59 | -12.64913 | -35.54002 | 33037 ft | 491 kts | 25° |
| 2026-05-07 11:00 | -12.58889 | -35.50778 | 33036 ft | 491 kts | 25° |
| 2026-05-07 11:00 | -12.52832 | -35.47539 | 33032 ft | 490 kts | 24° |
| 2026-05-07 11:01 | -12.46791 | -35.44306 | 33036 ft | 489 kts | 24° |
| 2026-05-07 11:01 | -12.40759 | -35.41084 | 33033 ft | 489 kts | 24° |
| 2026-05-07 11:02 | -12.34723 | -35.37863 | 33033 ft | 489 kts | 24° |
| 2026-05-07 11:02 | -12.28696 | -35.34644 | 33033 ft | 489 kts | 24° |
| 2026-05-07 11:03 | -12.22695 | -35.31442 | 33036 ft | 491 kts | 24° |
| 2026-05-07 11:03 | -12.16611 | -35.28201 | 33030 ft | 492 kts | 24° |
| 2026-05-07 11:04 | -12.10536 | -35.24964 | 33037 ft | 492 kts | 24° |
| 2026-05-07 11:04 | -12.04484 | -35.21733 | 33035 ft | 491 kts | 24° |
| 2026-05-07 11:05 | -11.98422 | -35.18508 | 33021 ft | 490 kts | 23° |
| 2026-05-07 11:05 | -11.92365 | -35.15288 | 33035 ft | 491 kts | 23° |
| 2026-05-07 11:06 | -11.86290 | -35.12056 | 33031 ft | 492 kts | 23° |
| 2026-05-07 11:06 | -11.80220 | -35.08833 | 33030 ft | 492 kts | 23° |
| 2026-05-07 11:07 | -11.74182 | -35.05622 | 33033 ft | 492 kts | 23° |
| 2026-05-07 11:07 | -11.68103 | -35.02394 | 33026 ft | 492 kts | 22° |
| 2026-05-07 11:08 | -11.62012 | -34.99160 | 33026 ft | 493 kts | 22° |
| 2026-05-07 11:08 | -11.55925 | -34.95929 | 33027 ft | 492 kts | 22° |
| 2026-05-07 11:09 | -11.49851 | -34.92709 | 33030 ft | 491 kts | 22° |
| 2026-05-07 11:09 | -11.43816 | -34.89509 | 33024 ft | 491 kts | 22° |
| 2026-05-07 11:10 | -11.37741 | -34.86297 | 33022 ft | 492 kts | 22° |
| 2026-05-07 11:10 | -11.31649 | -34.83074 | 33026 ft | 493 kts | 22° |
| 2026-05-07 11:11 | -11.25598 | -34.79870 | 33023 ft | 493 kts | 22° |
| 2026-05-07 11:11 | -11.19514 | -34.76640 | 33022 ft | 493 kts | 22° |
| 2026-05-07 11:12 | -11.13413 | -34.73425 | 33008 ft | 493 kts | 21° |
| 2026-05-07 11:12 | -11.07329 | -34.70209 | 33019 ft | 492 kts | 21° |
| 2026-05-07 11:13 | -11.01289 | -34.67003 | 33017 ft | 491 kts | 21° |
| 2026-05-07 11:13 | -10.95216 | -34.63803 | 33022 ft | 491 kts | 21° |
| 2026-05-07 11:14 | -10.89145 | -34.60599 | 33018 ft | 491 kts | 21° |
| 2026-05-07 11:14 | -10.83068 | -34.57390 | 33023 ft | 492 kts | 21° |
| 2026-05-07 11:15 | -10.76959 | -34.54175 | 33015 ft | 495 kts | 21° |
| 2026-05-07 11:15 | -10.70878 | -34.50970 | 33023 ft | 494 kts | 21° |
| 2026-05-07 11:16 | -10.64756 | -34.47748 | 33017 ft | 495 kts | 21° |
| 2026-05-07 11:16 | -10.58644 | -34.44531 | 32997 ft | 493 kts | 21° |
| 2026-05-07 11:17 | -10.52552 | -34.41324 | 33014 ft | 494 kts | 20° |
| 2026-05-07 11:17 | -10.46437 | -34.38109 | 33024 ft | 495 kts | 20° |
| 2026-05-07 11:18 | -10.40347 | -34.34907 | 33006 ft | 495 kts | 20° |
| 2026-05-07 11:18 | -10.34223 | -34.31688 | 33023 ft | 495 kts | 20° |
| 2026-05-07 11:19 | -10.28106 | -34.28474 | 32989 ft | 495 kts | 20° |
| 2026-05-07 11:19 | -10.22005 | -34.25274 | 33017 ft | 498 kts | 20° |
| 2026-05-07 11:20 | -10.15841 | -34.22044 | 33008 ft | 499 kts | 20° |
| 2026-05-07 11:20 | -10.09672 | -34.18803 | 33015 ft | 497 kts | 20° |
| 2026-05-07 11:21 | -10.03522 | -34.15580 | 33018 ft | 496 kts | 20° |
| 2026-05-07 11:21 | -9.97425 | -34.12376 | 33009 ft | 497 kts | 20° |
| 2026-05-07 11:22 | -9.91248 | -34.09136 | 33007 ft | 499 kts | 21° |
| 2026-05-07 11:22 | -9.85113 | -34.05917 | 33011 ft | 499 kts | 20° |
| 2026-05-07 11:23 | -9.78929 | -34.02677 | 33007 ft | 499 kts | 20° |
| 2026-05-07 11:23 | -9.72760 | -33.99447 | 33011 ft | 499 kts | 20° |
| 2026-05-07 11:24 | -9.66613 | -33.96241 | 33007 ft | 499 kts | 20° |
| 2026-05-07 11:24 | -9.60434 | -33.93013 | 33013 ft | 499 kts | 20° |
| 2026-05-07 11:25 | -9.54262 | -33.89794 | 33003 ft | 499 kts | 20° |
| 2026-05-07 11:25 | -9.48088 | -33.86555 | 33009 ft | 499 kts | 20° |
| 2026-05-07 11:26 | -9.41953 | -33.83356 | 32988 ft | 499 kts | 21° |
| 2026-05-07 11:26 | -9.35774 | -33.80130 | 33005 ft | 500 kts | 21° |
| 2026-05-07 11:27 | -9.29580 | -33.76900 | 33003 ft | 500 kts | 21° |
| 2026-05-07 11:27 | -9.23382 | -33.73672 | 33009 ft | 500 kts | 21° |
| 2026-05-07 11:28 | -9.17198 | -33.70445 | 33003 ft | 500 kts | 21° |
| 2026-05-07 11:28 | -9.11001 | -33.67215 | 33002 ft | 500 kts | 21° |
| 2026-05-07 11:29 | -9.04813 | -33.63989 | 32993 ft | 500 kts | 21° |
| 2026-05-07 11:29 | -8.98664 | -33.60779 | 33009 ft | 500 kts | 21° |
| 2026-05-07 11:30 | -8.92463 | -33.57576 | 32997 ft | 500 kts | 21° |
| 2026-05-07 11:30 | -8.86270 | -33.54328 | 33011 ft | 500 kts | 21° |
| 2026-05-07 11:31 | -8.80110 | -33.51148 | 33003 ft | 500 kts | 22° |
| 2026-05-07 11:31 | -8.73920 | -33.47931 | 33006 ft | 500 kts | 22° |
| 2026-05-07 11:32 | -8.64673 | -33.43087 | 32996 ft | 500 kts | 22° |
| 2026-05-07 11:33 | -8.58476 | -33.39864 | 32999 ft | 499 kts | 22° |
| 2026-05-07 11:33 | -8.52303 | -33.36656 | 32993 ft | 498 kts | 22° |
| 2026-05-07 11:34 | -8.46129 | -33.33458 | 32997 ft | 498 kts | 22° |
| 2026-05-07 11:34 | -8.39968 | -33.30262 | 32999 ft | 498 kts | 23° |
| 2026-05-07 11:35 | -8.33858 | -33.27045 | 32998 ft | 498 kts | 23° |
| 2026-05-07 11:35 | -8.27705 | -33.23813 | 32996 ft | 498 kts | 23° |
| 2026-05-07 11:36 | -8.21557 | -33.20572 | 32989 ft | 497 kts | 23° |
| 2026-05-07 11:36 | -8.16462 | -33.17890 | 32997 ft | 496 kts | 23° |
| 2026-05-07 11:37 | -8.09343 | -33.14169 | 32990 ft | 495 kts | 23° |
| 2026-05-07 11:37 | -8.04225 | -33.11494 | 32992 ft | 493 kts | 23° |
| 2026-05-07 11:38 | -7.98187 | -33.08320 | 32992 ft | 492 kts | 23° |
| 2026-05-07 11:38 | -7.92102 | -33.05128 | 32990 ft | 492 kts | 24° |
| 2026-05-07 11:39 | -7.86029 | -33.01938 | 32991 ft | 492 kts | 23° |
| 2026-05-07 11:39 | -7.79935 | -32.98747 | 32992 ft | 492 kts | 24° |
| 2026-05-07 11:40 | -7.73856 | -32.95559 | 32991 ft | 492 kts | 24° |
| 2026-05-07 11:40 | -7.67804 | -32.92385 | 32990 ft | 492 kts | 24° |
| 2026-05-07 11:41 | -7.61740 | -32.89174 | 32988 ft | 492 kts | 24° |
| 2026-05-07 11:41 | -7.55655 | -32.85990 | 32994 ft | 491 kts | 24° |
| 2026-05-07 11:42 | -7.49594 | -32.82817 | 32991 ft | 491 kts | 24° |
| 2026-05-07 11:42 | -7.43564 | -32.79652 | 32990 ft | 491 kts | 24° |
| 2026-05-07 11:43 | -7.37484 | -32.76483 | 32991 ft | 491 kts | 24° |
| 2026-05-07 11:43 | -7.31408 | -32.73318 | 32992 ft | 490 kts | 24° |
| 2026-05-07 11:44 | -7.25369 | -32.70138 | 32981 ft | 490 kts | 24° |
| 2026-05-07 11:44 | -7.19357 | -32.67007 | 32990 ft | 489 kts | 24° |
| 2026-05-07 11:45 | -7.13308 | -32.63846 | 32986 ft | 490 kts | 24° |
| 2026-05-07 11:45 | -7.07260 | -32.60691 | 32987 ft | 489 kts | 24° |
| 2026-05-07 11:46 | -7.01205 | -32.57536 | 32979 ft | 490 kts | 24° |
| 2026-05-07 11:46 | -6.95151 | -32.54373 | 32985 ft | 490 kts | 24° |
| 2026-05-07 11:47 | -6.89079 | -32.51212 | 32977 ft | 491 kts | 24° |
| 2026-05-07 11:47 | -6.83050 | -32.48055 | 32985 ft | 491 kts | 24° |
| 2026-05-07 11:48 | -6.76988 | -32.44872 | 32979 ft | 491 kts | 24° |
| 2026-05-07 11:48 | -6.70909 | -32.41722 | 32983 ft | 491 kts | 24° |
| 2026-05-07 11:49 | -6.64834 | -32.38562 | 32974 ft | 491 kts | 24° |
| 2026-05-07 11:49 | -6.58813 | -32.35412 | 32982 ft | 491 kts | 25° |
| 2026-05-07 11:50 | -6.52751 | -32.32230 | 32979 ft | 490 kts | 24° |
| 2026-05-07 11:50 | -6.46685 | -32.29076 | 32986 ft | 490 kts | 24° |
| 2026-05-07 11:51 | -6.40654 | -32.25959 | 32973 ft | 490 kts | 25° |
| 2026-05-07 11:51 | -6.34610 | -32.22804 | 32979 ft | 489 kts | 25° |
| 2026-05-07 11:52 | -6.28554 | -32.19647 | 32973 ft | 489 kts | 25° |
| 2026-05-07 11:52 | -6.22509 | -32.16499 | 32979 ft | 489 kts | 25° |
| 2026-05-07 11:53 | -6.16484 | -32.13370 | 32977 ft | 489 kts | 25° |
| 2026-05-07 11:53 | -6.10429 | -32.10222 | 32977 ft | 489 kts | 25° |
| 2026-05-07 11:54 | -6.04376 | -32.07071 | 32979 ft | 490 kts | 25° |
| 2026-05-07 11:54 | -5.98322 | -32.03918 | 32981 ft | 489 kts | 25° |
| 2026-05-07 11:55 | -5.92308 | -32.00800 | 32976 ft | 489 kts | 25° |
| 2026-05-07 11:55 | -5.86262 | -31.97651 | 32982 ft | 489 kts | 25° |
| 2026-05-07 11:56 | -5.80208 | -31.94527 | 32968 ft | 489 kts | 25° |
| 2026-05-07 11:56 | -5.74126 | -31.91432 | 32978 ft | 489 kts | 25° |
| 2026-05-07 11:57 | -5.68088 | -31.88354 | 32976 ft | 489 kts | 25° |
| 2026-05-07 11:57 | -5.62031 | -31.85226 | 32981 ft | 489 kts | 25° |
| 2026-05-07 11:58 | -5.55956 | -31.82129 | 32978 ft | 489 kts | 25° |
| 2026-05-07 11:58 | -5.49882 | -31.79045 | 32977 ft | 489 kts | 25° |
| 2026-05-07 11:59 | -5.43855 | -31.75947 | 32979 ft | 488 kts | 26° |
| 2026-05-07 11:59 | -5.37806 | -31.72816 | 32980 ft | 488 kts | 25° |
| 2026-05-07 12:00 | -5.31739 | -31.69729 | 32981 ft | 488 kts | 25° |
| 2026-05-07 12:00 | -5.25680 | -31.66644 | 32983 ft | 488 kts | 25° |
| 2026-05-07 12:01 | -5.19659 | -31.63563 | 32983 ft | 488 kts | 25° |
| 2026-05-07 12:01 | -5.13597 | -31.60470 | 32978 ft | 488 kts | 26° |
| 2026-05-07 12:02 | -5.07535 | -31.57379 | 32978 ft | 488 kts | 26° |
| 2026-05-07 12:02 | -5.01459 | -31.54280 | 32974 ft | 488 kts | 26° |
| 2026-05-07 12:03 | -4.95435 | -31.51204 | 32977 ft | 488 kts | 26° |
| 2026-05-07 12:03 | -4.89382 | -31.48115 | 32973 ft | 488 kts | 26° |
| 2026-05-07 12:04 | -4.83323 | -31.45024 | 32973 ft | 488 kts | 26° |
| 2026-05-07 12:04 | -4.77259 | -31.41931 | 32977 ft | 488 kts | 26° |
| 2026-05-07 12:05 | -4.71204 | -31.38843 | 32972 ft | 488 kts | 26° |
| 2026-05-07 12:05 | -4.65186 | -31.35780 | 32975 ft | 488 kts | 26° |
| 2026-05-07 12:06 | -4.59129 | -31.32690 | 32977 ft | 488 kts | 26° |
| 2026-05-07 12:06 | -4.53078 | -31.29599 | 32973 ft | 488 kts | 26° |
| 2026-05-07 12:07 | -4.47006 | -31.26508 | 32976 ft | 489 kts | 26° |
| 2026-05-07 12:07 | -4.40968 | -31.23430 | 32980 ft | 489 kts | 26° |
| 2026-05-07 12:08 | -4.34900 | -31.20336 | 32978 ft | 489 kts | 26° |
| 2026-05-07 12:08 | -4.28835 | -31.17245 | 32978 ft | 489 kts | 26° |
| 2026-05-07 12:09 | -4.22762 | -31.14154 | 32970 ft | 489 kts | 26° |
| 2026-05-07 12:09 | -4.16679 | -31.11076 | 32978 ft | 490 kts | 26° |
| 2026-05-07 12:10 | -4.10629 | -31.07995 | 32969 ft | 490 kts | 26° |
| 2026-05-07 12:10 | -4.04569 | -31.04914 | 32970 ft | 490 kts | 26° |
| 2026-05-07 12:11 | -3.98498 | -31.01813 | 32973 ft | 490 kts | 26° |
| 2026-05-07 12:11 | -3.92415 | -30.98723 | 32972 ft | 490 kts | 26° |
| 2026-05-07 12:12 | -3.86327 | -30.95623 | 32973 ft | 490 kts | 26° |
| 2026-05-07 12:12 | -3.80238 | -30.92532 | 32978 ft | 490 kts | 26° |
| 2026-05-07 12:13 | -3.74191 | -30.89462 | 32970 ft | 490 kts | 26° |
| 2026-05-07 12:13 | -3.68119 | -30.86372 | 32973 ft | 490 kts | 26° |
| 2026-05-07 12:14 | -3.62022 | -30.83292 | 32976 ft | 490 kts | 26° |
| 2026-05-07 12:14 | -3.55971 | -30.80216 | 32976 ft | 490 kts | 26° |
| 2026-05-07 12:15 | -3.49895 | -30.77119 | 32980 ft | 490 kts | 26° |
| 2026-05-07 12:15 | -3.43805 | -30.73999 | 32980 ft | 490 kts | 26° |
| 2026-05-07 12:16 | -3.37717 | -30.70906 | 32979 ft | 490 kts | 26° |
| 2026-05-07 12:16 | -3.31669 | -30.67836 | 32975 ft | 490 kts | 26° |
| 2026-05-07 12:17 | -3.25589 | -30.64749 | 32976 ft | 489 kts | 26° |
| 2026-05-07 12:17 | -3.19496 | -30.61668 | 32973 ft | 490 kts | 26° |
| 2026-05-07 12:18 | -3.13442 | -30.58600 | 32966 ft | 490 kts | 26° |
| 2026-05-07 12:18 | -3.07355 | -30.55506 | 32974 ft | 489 kts | 26° |
| 2026-05-07 12:19 | -3.01272 | -30.52422 | 32968 ft | 490 kts | 26° |
| 2026-05-07 12:19 | -2.95181 | -30.49333 | 32972 ft | 490 kts | 26° |
| 2026-05-07 12:20 | -2.89131 | -30.46268 | 32968 ft | 489 kts | 26° |
| 2026-05-07 12:20 | -2.83044 | -30.43176 | 32973 ft | 489 kts | 26° |
| 2026-05-07 12:21 | -2.77008 | -30.40108 | 32974 ft | 489 kts | 26° |
| 2026-05-07 12:21 | -2.70933 | -30.37018 | 32975 ft | 489 kts | 26° |
| 2026-05-07 12:22 | -2.64865 | -30.33949 | 32976 ft | 489 kts | 26° |
| 2026-05-07 12:22 | -2.58804 | -30.30874 | 32973 ft | 489 kts | 26° |
| 2026-05-07 12:23 | -2.52716 | -30.27789 | 32970 ft | 489 kts | 26° |
| 2026-05-07 12:23 | -2.46689 | -30.24731 | 32964 ft | 489 kts | 26° |
| 2026-05-07 12:24 | -2.40618 | -30.21641 | 32968 ft | 489 kts | 26° |
| 2026-05-07 12:24 | -2.34551 | -30.18570 | 32963 ft | 489 kts | 26° |
| 2026-05-07 12:25 | -2.29509 | -30.16010 | 32959 ft | 489 kts | 27° |
| 2026-05-07 12:25 | -2.23423 | -30.12914 | 32962 ft | 492 kts | 27° |
| 2026-05-07 12:26 | -2.17304 | -30.09832 | 32969 ft | 492 kts | 26° |
| 2026-05-07 12:26 | -2.11204 | -30.06739 | 32961 ft | 491 kts | 26° |
| 2026-05-07 12:27 | -2.05112 | -30.03652 | 32964 ft | 491 kts | 27° |
| 2026-05-07 12:27 | -1.99012 | -30.00558 | 32966 ft | 491 kts | 26° |
| 2026-05-07 12:28 | -1.92734 | -29.97864 | 33015 ft | 492 kts | 14° |
| 2026-05-07 12:28 | -1.89443 | -29.97101 | 33176 ft | 493 kts | 12° |
| 2026-05-07 12:28 | -1.86097 | -29.96318 | 33292 ft | 494 kts | 14° |
| 2026-05-07 12:28 | -1.82755 | -29.95433 | 33423 ft | 495 kts | 15° |
| 2026-05-07 12:29 | -1.79438 | -29.94530 | 33549 ft | 495 kts | 15° |
| 2026-05-07 12:29 | -1.76095 | -29.93666 | 33678 ft | 495 kts | 13° |
| 2026-05-07 12:29 | -1.72744 | -29.92867 | 33807 ft | 495 kts | 13° |
| 2026-05-07 12:29 | -1.69386 | -29.92076 | 33930 ft | 495 kts | 13° |
| 2026-05-07 12:30 | -1.66022 | -29.91281 | 34055 ft | 495 kts | 13° |
| 2026-05-07 12:30 | -1.62708 | -29.90504 | 34165 ft | 495 kts | 13° |
| 2026-05-07 12:30 | -1.59356 | -29.89705 | 34281 ft | 495 kts | 13° |
| 2026-05-07 12:30 | -1.56004 | -29.88906 | 34387 ft | 495 kts | 13° |
| 2026-05-07 12:31 | -1.52646 | -29.88116 | 34504 ft | 495 kts | 13° |
| 2026-05-07 12:31 | -1.49298 | -29.87327 | 34619 ft | 495 kts | 13° |
| 2026-05-07 12:31 | -1.45947 | -29.86535 | 34727 ft | 494 kts | 13° |
| 2026-05-07 12:31 | -1.42602 | -29.85747 | 34871 ft | 493 kts | 13° |
| 2026-05-07 12:32 | -1.39254 | -29.84955 | 34929 ft | 495 kts | 13° |
| 2026-05-07 12:32 | -1.32605 | -29.83360 | 34959 ft | 494 kts | 13° |
| 2026-05-07 12:33 | -1.22556 | -29.81052 | 34969 ft | 491 kts | 13° |
| 2026-05-07 12:33 | -1.15907 | -29.79471 | 34966 ft | 490 kts | 13° |
| 2026-05-07 12:34 | -1.09257 | -29.77897 | 34970 ft | 490 kts | 13° |
| 2026-05-07 12:34 | -1.02619 | -29.76335 | 34967 ft | 490 kts | 13° |
| 2026-05-07 12:35 | -0.96021 | -29.74781 | 34967 ft | 490 kts | 13° |
| 2026-05-07 12:35 | -0.89368 | -29.73213 | 34965 ft | 490 kts | 13° |
| 2026-05-07 12:36 | -0.82709 | -29.71673 | 34968 ft | 490 kts | 13° |
| 2026-05-07 12:36 | -0.76055 | -29.70125 | 34969 ft | 490 kts | 13° |
| 2026-05-07 12:37 | -0.69399 | -29.68557 | 34965 ft | 491 kts | 13° |
| 2026-05-07 12:37 | -0.62782 | -29.67031 | 34968 ft | 491 kts | 13° |
| 2026-05-07 12:38 | -0.56135 | -29.65441 | 34968 ft | 492 kts | 13° |
| 2026-05-07 12:38 | -0.49463 | -29.63839 | 34969 ft | 492 kts | 13° |
| 2026-05-07 12:39 | -0.42797 | -29.62273 | 34967 ft | 492 kts | 13° |
| 2026-05-07 12:39 | -0.36127 | -29.60715 | 34970 ft | 492 kts | 13° |
| 2026-05-07 12:40 | -0.29504 | -29.59136 | 34967 ft | 492 kts | 13° |
| 2026-05-07 12:40 | -0.22825 | -29.57616 | 34970 ft | 492 kts | 13° |
| 2026-05-07 12:41 | -0.16141 | -29.56063 | 34966 ft | 492 kts | 13° |
| 2026-05-07 12:41 | -0.09463 | -29.54490 | 34971 ft | 492 kts | 13° |
| 2026-05-07 12:42 | -0.02790 | -29.52897 | 34965 ft | 492 kts | 13° |
| 2026-05-07 12:42 | 0.03826 | -29.51315 | 34970 ft | 492 kts | 13° |
| 2026-05-07 12:43 | 0.10520 | -29.49773 | 34966 ft | 492 kts | 13° |
| 2026-05-07 12:43 | 0.17210 | -29.48251 | 34970 ft | 492 kts | 13° |
| 2026-05-07 12:44 | 0.23879 | -29.46664 | 34966 ft | 493 kts | 13° |
| 2026-05-07 12:44 | 0.30515 | -29.45111 | 34968 ft | 492 kts | 13° |
| 2026-05-07 12:45 | 0.37196 | -29.43539 | 34964 ft | 493 kts | 13° |
| 2026-05-07 12:45 | 0.43888 | -29.41986 | 34967 ft | 494 kts | 13° |
| 2026-05-07 12:46 | 0.50594 | -29.40402 | 34963 ft | 494 kts | 13° |
| 2026-05-07 12:46 | 0.57241 | -29.38812 | 34967 ft | 494 kts | 13° |
| 2026-05-07 12:47 | 0.63938 | -29.37229 | 34963 ft | 494 kts | 13° |
| 2026-05-07 12:47 | 0.70635 | -29.35666 | 34968 ft | 494 kts | 13° |
| 2026-05-07 12:48 | 0.77333 | -29.34099 | 34967 ft | 494 kts | 13° |
| 2026-05-07 12:48 | 0.84034 | -29.32532 | 34963 ft | 495 kts | 12° |
| 2026-05-07 12:49 | 0.90740 | -29.30977 | 34963 ft | 495 kts | 13° |
| 2026-05-07 12:49 | 0.97446 | -29.29424 | 34963 ft | 495 kts | 13° |
| 2026-05-07 12:50 | 1.04102 | -29.27847 | 34965 ft | 495 kts | 13° |
| 2026-05-07 12:50 | 1.10853 | -29.26412 | 34963 ft | 496 kts | 12° |
| 2026-05-07 12:51 | 1.17577 | -29.24803 | 34967 ft | 496 kts | 14° |
| 2026-05-07 12:51 | 1.24236 | -29.23172 | 34963 ft | 496 kts | 13° |
| 2026-05-07 12:52 | 1.30970 | -29.21605 | 34960 ft | 496 kts | 13° |
| 2026-05-07 12:52 | 1.37704 | -29.20082 | 34963 ft | 496 kts | 13° |
| 2026-05-07 12:53 | 1.44400 | -29.18537 | 34962 ft | 497 kts | 13° |
| 2026-05-07 12:53 | 1.51145 | -29.17004 | 34966 ft | 497 kts | 12° |
| 2026-05-07 12:54 | 1.57888 | -29.15476 | 34963 ft | 497 kts | 13° |
| 2026-05-07 12:54 | 1.64637 | -29.13937 | 34966 ft | 497 kts | 13° |
| 2026-05-07 12:55 | 1.71372 | -29.12385 | 34957 ft | 497 kts | 12° |
| 2026-05-07 12:55 | 1.78078 | -29.10867 | 34963 ft | 497 kts | 13° |
| 2026-05-07 12:56 | 1.84816 | -29.09297 | 34958 ft | 497 kts | 13° |
| 2026-05-07 12:56 | 1.91558 | -29.07752 | 34963 ft | 497 kts | 12° |
| 2026-05-07 12:57 | 1.98317 | -29.06235 | 34963 ft | 497 kts | 13° |
| 2026-05-07 12:57 | 2.05014 | -29.04681 | 34967 ft | 497 kts | 13° |
| 2026-05-07 12:58 | 2.11780 | -29.03119 | 34959 ft | 497 kts | 13° |
| 2026-05-07 12:58 | 2.18523 | -29.01550 | 34961 ft | 497 kts | 13° |
| 2026-05-07 12:59 | 2.25234 | -29.00016 | 34962 ft | 497 kts | 12° |
| 2026-05-07 12:59 | 2.31981 | -28.98465 | 34961 ft | 497 kts | 13° |
| 2026-05-07 13:00 | 2.38736 | -28.96948 | 34964 ft | 497 kts | 12° |
| 2026-05-07 13:00 | 2.45487 | -28.95394 | 34963 ft | 497 kts | 13° |
| 2026-05-07 13:01 | 2.52209 | -28.93887 | 34965 ft | 497 kts | 13° |
| 2026-05-07 13:01 | 2.58953 | -28.92326 | 34959 ft | 497 kts | 13° |
| 2026-05-07 13:02 | 2.65713 | -28.90801 | 34961 ft | 497 kts | 13° |
| 2026-05-07 13:02 | 2.72438 | -28.89255 | 34958 ft | 498 kts | 13° |
| 2026-05-07 13:03 | 2.79198 | -28.87673 | 34963 ft | 498 kts | 13° |
| 2026-05-07 13:03 | 2.85960 | -28.86129 | 34958 ft | 498 kts | 13° |
| 2026-05-07 13:04 | 2.92677 | -28.84571 | 34960 ft | 498 kts | 13° |
| 2026-05-07 13:04 | 2.99438 | -28.83028 | 34963 ft | 498 kts | 12° |
| 2026-05-07 13:05 | 3.06211 | -28.81508 | 34957 ft | 498 kts | 13° |
| 2026-05-07 13:05 | 3.12781 | -28.79456 | 34937 ft | 496 kts | 27° |
| 2026-05-07 13:06 | 3.18912 | -28.76274 | 34961 ft | 497 kts | 26° |
| 2026-05-07 13:06 | 3.25191 | -28.73348 | 34961 ft | 498 kts | 26° |
| 2026-05-07 13:07 | 3.31377 | -28.70229 | 34956 ft | 498 kts | 28° |
| 2026-05-07 13:07 | 3.37522 | -28.67010 | 34962 ft | 497 kts | 28° |
| 2026-05-07 13:08 | 3.43657 | -28.63783 | 34956 ft | 498 kts | 28° |
| 2026-05-07 13:08 | 3.49766 | -28.60578 | 34960 ft | 498 kts | 28° |
| 2026-05-07 13:09 | 3.55915 | -28.57363 | 34957 ft | 499 kts | 28° |
| 2026-05-07 13:09 | 3.62074 | -28.54146 | 34965 ft | 498 kts | 28° |
| 2026-05-07 13:10 | 3.68227 | -28.50939 | 34957 ft | 499 kts | 28° |
| 2026-05-07 13:10 | 3.74384 | -28.47734 | 34963 ft | 499 kts | 28° |
| 2026-05-07 13:11 | 3.80558 | -28.44531 | 34958 ft | 500 kts | 28° |
| 2026-05-07 13:11 | 3.86723 | -28.41298 | 34959 ft | 500 kts | 28° |
| 2026-05-07 13:12 | 3.92847 | -28.38072 | 34960 ft | 499 kts | 28° |
| 2026-05-07 13:12 | 3.97966 | -28.35366 | 34962 ft | 499 kts | 28° |
| 2026-05-07 13:13 | 4.05139 | -28.31616 | 34958 ft | 500 kts | 28° |
| 2026-05-07 13:13 | 4.10305 | -28.28894 | 34960 ft | 500 kts | 28° |
| 2026-05-07 13:14 | 4.16474 | -28.25702 | 34954 ft | 501 kts | 28° |
| 2026-05-07 13:14 | 4.22660 | -28.22462 | 34959 ft | 501 kts | 28° |
| 2026-05-07 13:15 | 4.28794 | -28.19227 | 34955 ft | 501 kts | 28° |
| 2026-05-07 13:15 | 4.34995 | -28.16004 | 34962 ft | 501 kts | 28° |
| 2026-05-07 13:16 | 4.41175 | -28.12745 | 34959 ft | 501 kts | 28° |
| 2026-05-07 13:16 | 4.47330 | -28.09473 | 34962 ft | 501 kts | 28° |
| 2026-05-07 13:17 | 4.53475 | -28.06244 | 34954 ft | 501 kts | 28° |
| 2026-05-07 13:17 | 4.59668 | -28.02990 | 34958 ft | 501 kts | 27° |
| 2026-05-07 13:18 | 4.65870 | -27.99786 | 34959 ft | 502 kts | 28° |
| 2026-05-07 13:18 | 4.72057 | -27.96501 | 34963 ft | 501 kts | 28° |
| 2026-05-07 13:19 | 4.78236 | -27.93253 | 34960 ft | 501 kts | 28° |
| 2026-05-07 13:19 | 4.84361 | -27.90001 | 34962 ft | 501 kts | 28° |
| 2026-05-07 13:20 | 4.90550 | -27.86763 | 34963 ft | 501 kts | 28° |
| 2026-05-07 13:20 | 4.96734 | -27.83538 | 34963 ft | 501 kts | 28° |
| 2026-05-07 13:21 | 5.02924 | -27.80304 | 34961 ft | 501 kts | 28° |
| 2026-05-07 13:21 | 5.09099 | -27.77065 | 34963 ft | 501 kts | 28° |
| 2026-05-07 13:22 | 5.15252 | -27.73844 | 34962 ft | 501 kts | 28° |
| 2026-05-07 13:22 | 5.21425 | -27.70571 | 34958 ft | 501 kts | 27° |
| 2026-05-07 13:23 | 5.27626 | -27.67370 | 34961 ft | 501 kts | 28° |
| 2026-05-07 13:23 | 5.33794 | -27.64086 | 34959 ft | 501 kts | 28° |
| 2026-05-07 13:24 | 5.39990 | -27.60862 | 34959 ft | 501 kts | 28° |
| 2026-05-07 13:24 | 5.46115 | -27.57591 | 34961 ft | 501 kts | 28° |
| 2026-05-07 13:25 | 5.52300 | -27.54317 | 34961 ft | 501 kts | 28° |
| 2026-05-07 13:25 | 5.58467 | -27.51028 | 34960 ft | 501 kts | 27° |
| 2026-05-07 13:26 | 5.64641 | -27.47850 | 34957 ft | 501 kts | 27° |
| 2026-05-07 13:26 | 5.70823 | -27.44579 | 34963 ft | 502 kts | 27° |
| 2026-05-07 13:27 | 5.77018 | -27.41327 | 34962 ft | 503 kts | 27° |
| 2026-05-07 13:27 | 5.83182 | -27.38050 | 34962 ft | 504 kts | 27° |
| 2026-05-07 13:28 | 5.89395 | -27.34766 | 34962 ft | 504 kts | 27° |
| 2026-05-07 13:28 | 5.95608 | -27.31482 | 34960 ft | 504 kts | 27° |
| 2026-05-07 13:29 | 6.01797 | -27.28250 | 34959 ft | 504 kts | 26° |
| 2026-05-07 13:29 | 6.08020 | -27.24979 | 34960 ft | 504 kts | 28° |
| 2026-05-07 13:30 | 6.14217 | -27.21649 | 34964 ft | 505 kts | 27° |
| 2026-05-07 13:30 | 6.20451 | -27.18385 | 34963 ft | 505 kts | 27° |
| 2026-05-07 13:31 | 6.26633 | -27.15097 | 34963 ft | 505 kts | 27° |
| 2026-05-07 13:31 | 6.32848 | -27.11787 | 34964 ft | 505 kts | 27° |
| 2026-05-07 13:32 | 6.39081 | -27.08514 | 34963 ft | 505 kts | 27° |
| 2026-05-07 13:32 | 6.45347 | -27.05273 | 34962 ft | 505 kts | 27° |
| 2026-05-07 13:33 | 6.51541 | -27.01989 | 34965 ft | 505 kts | 27° |
| 2026-05-07 13:33 | 6.57756 | -26.98658 | 34967 ft | 505 kts | 27° |
| 2026-05-07 13:34 | 6.67135 | -26.93760 | 34966 ft | 505 kts | 27° |
| 2026-05-07 13:35 | 6.73345 | -26.90445 | 34962 ft | 505 kts | 27° |
| 2026-05-07 13:35 | 6.79531 | -26.87147 | 34963 ft | 505 kts | 27° |
| 2026-05-07 13:36 | 6.85769 | -26.83871 | 34964 ft | 506 kts | 27° |
| 2026-05-07 13:36 | 6.91991 | -26.80534 | 34968 ft | 506 kts | 27° |
| 2026-05-07 13:37 | 6.98213 | -26.77208 | 34964 ft | 506 kts | 27° |
| 2026-05-07 13:37 | 7.04394 | -26.73898 | 34968 ft | 506 kts | 27° |
| 2026-05-07 13:38 | 7.10635 | -26.70605 | 34961 ft | 506 kts | 27° |
| 2026-05-07 13:38 | 7.16877 | -26.67313 | 34963 ft | 506 kts | 27° |
| 2026-05-07 13:39 | 7.23119 | -26.64022 | 34969 ft | 506 kts | 27° |
| 2026-05-07 13:39 | 7.29323 | -26.60745 | 34967 ft | 506 kts | 27° |
| 2026-05-07 13:40 | 7.35548 | -26.57437 | 34969 ft | 506 kts | 27° |
| 2026-05-07 13:40 | 7.41770 | -26.54110 | 34963 ft | 506 kts | 27° |
| 2026-05-07 13:41 | 7.47985 | -26.50772 | 34976 ft | 506 kts | 27° |
| 2026-05-07 13:41 | 7.54218 | -26.47459 | 34966 ft | 506 kts | 26° |
| 2026-05-07 13:42 | 7.60405 | -26.44142 | 34971 ft | 506 kts | 26° |
| 2026-05-07 13:42 | 7.66648 | -26.40839 | 34965 ft | 506 kts | 26° |
| 2026-05-07 13:43 | 7.72902 | -26.37567 | 34968 ft | 506 kts | 26° |
| 2026-05-07 13:43 | 7.79106 | -26.34249 | 34970 ft | 506 kts | 26° |
| 2026-05-07 13:44 | 7.85353 | -26.30930 | 34962 ft | 507 kts | 26° |
| 2026-05-07 13:44 | 7.91591 | -26.27588 | 34969 ft | 508 kts | 26° |
| 2026-05-07 13:45 | 7.97852 | -26.24260 | 34962 ft | 508 kts | 26° |
| 2026-05-07 13:45 | 8.04060 | -26.20954 | 34971 ft | 507 kts | 26° |
| 2026-05-07 13:46 | 8.10296 | -26.17604 | 34967 ft | 507 kts | 26° |
| 2026-05-07 13:46 | 8.16545 | -26.14293 | 34969 ft | 507 kts | 26° |
| 2026-05-07 13:47 | 8.22788 | -26.10949 | 34974 ft | 508 kts | 26° |
| 2026-05-07 13:47 | 8.29060 | -26.07611 | 34968 ft | 509 kts | 26° |
| 2026-05-07 13:48 | 8.35289 | -26.04287 | 34968 ft | 509 kts | 26° |
| 2026-05-07 13:48 | 8.41543 | -26.00910 | 34964 ft | 510 kts | 26° |
| 2026-05-07 13:49 | 8.47808 | -25.97547 | 34966 ft | 510 kts | 26° |
| 2026-05-07 13:49 | 8.54089 | -25.94205 | 34972 ft | 510 kts | 26° |
| 2026-05-07 13:50 | 8.60363 | -25.90858 | 34970 ft | 510 kts | 26° |
| 2026-05-07 13:50 | 8.66636 | -25.87490 | 34968 ft | 510 kts | 26° |
| 2026-05-07 13:51 | 8.72860 | -25.84140 | 34966 ft | 510 kts | 26° |
| 2026-05-07 13:51 | 8.79148 | -25.80776 | 34971 ft | 510 kts | 26° |
| 2026-05-07 13:52 | 8.85438 | -25.77450 | 34974 ft | 510 kts | 26° |
| 2026-05-07 13:52 | 8.91680 | -25.74086 | 34973 ft | 510 kts | 26° |
| 2026-05-07 13:53 | 8.97955 | -25.70700 | 34974 ft | 510 kts | 26° |
| 2026-05-07 13:53 | 9.04198 | -25.67345 | 34976 ft | 510 kts | 26° |
| 2026-05-07 13:54 | 9.10477 | -25.63995 | 34972 ft | 510 kts | 26° |
| 2026-05-07 13:54 | 9.16754 | -25.60623 | 34976 ft | 510 kts | 26° |
| 2026-05-07 13:55 | 9.23027 | -25.57261 | 34971 ft | 510 kts | 26° |
| 2026-05-07 13:55 | 9.29276 | -25.53908 | 34976 ft | 512 kts | 25° |
| 2026-05-07 13:56 | 9.35593 | -25.50533 | 34981 ft | 512 kts | 26° |
| 2026-05-07 13:56 | 9.41881 | -25.47112 | 34977 ft | 512 kts | 25° |
| 2026-05-07 13:57 | 9.48158 | -25.43785 | 34979 ft | 512 kts | 25° |
| 2026-05-07 13:57 | 9.54444 | -25.40372 | 34975 ft | 512 kts | 26° |
| 2026-05-07 13:58 | 9.60750 | -25.36983 | 34989 ft | 513 kts | 26° |
| 2026-05-07 13:58 | 9.67106 | -25.33590 | 34980 ft | 517 kts | 25° |
| 2026-05-07 13:59 | 9.73496 | -25.30217 | 34981 ft | 517 kts | 25° |
| 2026-05-07 13:59 | 9.79822 | -25.26796 | 34977 ft | 518 kts | 26° |
| 2026-05-07 14:00 | 9.86196 | -25.23352 | 34983 ft | 518 kts | 26° |
| 2026-05-07 14:00 | 9.92567 | -25.19905 | 34980 ft | 518 kts | 26° |
| 2026-05-07 14:01 | 9.98886 | -25.16470 | 34982 ft | 518 kts | 26° |
| 2026-05-07 14:01 | 10.05241 | -25.13003 | 34979 ft | 518 kts | 26° |
| 2026-05-07 14:02 | 10.11603 | -25.09564 | 34980 ft | 518 kts | 26° |
| 2026-05-07 14:02 | 10.17962 | -25.06138 | 34982 ft | 518 kts | 26° |
| 2026-05-07 14:03 | 10.24324 | -25.02685 | 34980 ft | 518 kts | 26° |
| 2026-05-07 14:03 | 10.29599 | -24.99811 | 34978 ft | 517 kts | 26° |
| 2026-05-07 14:04 | 10.36961 | -24.95757 | 34977 ft | 517 kts | 26° |
| 2026-05-07 14:04 | 10.42286 | -24.92889 | 34978 ft | 517 kts | 26° |
| 2026-05-07 14:05 | 10.48648 | -24.89449 | 34975 ft | 517 kts | 25° |
| 2026-05-07 14:05 | 10.54987 | -24.86076 | 34980 ft | 517 kts | 25° |
| 2026-05-07 14:06 | 10.61323 | -24.82614 | 34984 ft | 517 kts | 27° |
| 2026-05-07 14:06 | 10.67668 | -24.79141 | 34985 ft | 517 kts | 24° |
| 2026-05-07 14:07 | 10.74063 | -24.75771 | 34982 ft | 518 kts | 25° |
| 2026-05-07 14:07 | 10.80408 | -24.72275 | 34979 ft | 518 kts | 26° |
| 2026-05-07 14:08 | 10.86737 | -24.68856 | 34979 ft | 518 kts | 25° |
| 2026-05-07 14:08 | 10.93096 | -24.65408 | 34980 ft | 518 kts | 25° |
| 2026-05-07 14:09 | 10.99445 | -24.61894 | 34985 ft | 519 kts | 25° |
| 2026-05-07 14:09 | 11.05826 | -24.58441 | 34985 ft | 520 kts | 25° |
| 2026-05-07 14:10 | 11.12191 | -24.55014 | 34983 ft | 521 kts | 25° |
| 2026-05-07 14:10 | 11.18588 | -24.51541 | 34984 ft | 520 kts | 25° |
| 2026-05-07 14:11 | 11.24955 | -24.48012 | 34982 ft | 521 kts | 26° |
| 2026-05-07 14:11 | 11.31342 | -24.44536 | 34980 ft | 520 kts | 25° |
| 2026-05-07 14:12 | 11.37731 | -24.41039 | 34995 ft | 521 kts | 25° |
| 2026-05-07 14:12 | 11.44137 | -24.37570 | 34972 ft | 522 kts | 25° |
| 2026-05-07 14:13 | 11.50517 | -24.34101 | 34991 ft | 522 kts | 25° |
| 2026-05-07 14:13 | 11.56938 | -24.30588 | 34974 ft | 522 kts | 25° |
| 2026-05-07 14:14 | 11.63382 | -24.27152 | 34989 ft | 522 kts | 25° |
| 2026-05-07 14:14 | 11.69770 | -24.23575 | 34974 ft | 523 kts | 26° |
| 2026-05-07 14:15 | 11.76137 | -24.20052 | 34981 ft | 523 kts | 24° |
| 2026-05-07 14:15 | 11.82609 | -24.16627 | 34981 ft | 524 kts | 25° |
| 2026-05-07 14:16 | 11.89027 | -24.13073 | 34980 ft | 524 kts | 26° |
| 2026-05-07 14:16 | 11.95379 | -24.09506 | 34983 ft | 524 kts | 25° |
| 2026-05-07 14:17 | 12.01807 | -24.06000 | 34982 ft | 524 kts | 24° |
| 2026-05-07 14:17 | 12.08268 | -24.02526 | 34988 ft | 525 kts | 24° |
| 2026-05-07 14:18 | 12.14727 | -23.98992 | 34979 ft | 526 kts | 25° |
| 2026-05-07 14:18 | 12.21173 | -23.95422 | 34982 ft | 526 kts | 24° |
| 2026-05-07 14:19 | 12.27598 | -23.91914 | 34982 ft | 526 kts | 25° |
| 2026-05-07 14:19 | 12.34028 | -23.88321 | 34978 ft | 527 kts | 25° |
| 2026-05-07 14:20 | 12.40489 | -23.84781 | 34986 ft | 526 kts | 24° |
| 2026-05-07 14:20 | 12.46943 | -23.81201 | 34983 ft | 528 kts | 25° |
| 2026-05-07 14:21 | 12.53395 | -23.77591 | 34984 ft | 527 kts | 24° |
| 2026-05-07 14:21 | 12.59874 | -23.74081 | 34983 ft | 527 kts | 24° |
| 2026-05-07 14:22 | 12.66347 | -23.70530 | 34984 ft | 528 kts | 24° |
| 2026-05-07 14:22 | 12.72791 | -23.67015 | 34986 ft | 528 kts | 25° |
| 2026-05-07 14:23 | 12.79234 | -23.63379 | 34983 ft | 529 kts | 25° |
| 2026-05-07 14:23 | 12.85728 | -23.59818 | 34983 ft | 529 kts | 24° |
| 2026-05-07 14:24 | 12.92226 | -23.56275 | 34982 ft | 529 kts | 25° |
| 2026-05-07 14:24 | 12.98671 | -23.52609 | 34989 ft | 530 kts | 25° |
| 2026-05-07 14:25 | 13.05154 | -23.48996 | 34984 ft | 529 kts | 24° |
| 2026-05-07 14:25 | 13.11629 | -23.45496 | 34988 ft | 530 kts | 24° |
| 2026-05-07 14:26 | 13.18155 | -23.41931 | 34985 ft | 531 kts | 24° |
| 2026-05-07 14:26 | 13.24658 | -23.38292 | 34986 ft | 532 kts | 25° |
| 2026-05-07 14:27 | 13.31122 | -23.34707 | 34988 ft | 531 kts | 24° |
| 2026-05-07 14:27 | 13.37647 | -23.31097 | 34989 ft | 531 kts | 25° |
| 2026-05-07 14:28 | 13.44129 | -23.27445 | 34990 ft | 531 kts | 24° |
| 2026-05-07 14:28 | 13.50641 | -23.23847 | 34986 ft | 531 kts | 24° |
| 2026-05-07 14:29 | 13.57094 | -23.20237 | 34989 ft | 531 kts | 25° |
| 2026-05-07 14:29 | 13.63598 | -23.16598 | 34990 ft | 531 kts | 24° |
| 2026-05-07 14:30 | 13.70116 | -23.13004 | 34988 ft | 531 kts | 25° |
| 2026-05-07 14:30 | 13.76599 | -23.09326 | 34977 ft | 532 kts | 25° |
| 2026-05-07 14:31 | 13.83037 | -23.05672 | 34987 ft | 532 kts | 24° |
| 2026-05-07 14:31 | 13.89610 | -23.02127 | 34983 ft | 533 kts | 23° |
| 2026-05-07 14:32 | 13.96147 | -22.98492 | 34983 ft | 534 kts | 25° |
| 2026-05-07 14:32 | 14.02665 | -22.94803 | 34989 ft | 533 kts | 24° |
| 2026-05-07 14:33 | 14.09175 | -22.91210 | 34984 ft | 533 kts | 24° |
| 2026-05-07 14:33 | 14.15711 | -22.87546 | 34994 ft | 534 kts | 24° |
| 2026-05-07 14:34 | 14.22212 | -22.83866 | 34989 ft | 535 kts | 24° |
| 2026-05-07 14:34 | 14.28781 | -22.80227 | 34981 ft | 535 kts | 23° |
| 2026-05-07 14:35 | 14.35342 | -22.76573 | 34989 ft | 535 kts | 24° |
| 2026-05-07 14:35 | 14.41866 | -22.72920 | 34981 ft | 536 kts | 24° |
| 2026-05-07 14:36 | 14.48417 | -22.69221 | 34991 ft | 536 kts | 24° |
| 2026-05-07 14:36 | 14.54930 | -22.65551 | 34981 ft | 537 kts | 24° |
| 2026-05-07 14:37 | 14.61498 | -22.61851 | 34982 ft | 537 kts | 23° |
| 2026-05-07 14:37 | 14.71362 | -22.56344 | 34979 ft | 537 kts | 24° |
| 2026-05-07 14:38 | 14.77926 | -22.52629 | 34990 ft | 537 kts | 24° |
| 2026-05-07 14:38 | 14.84465 | -22.48952 | 34998 ft | 537 kts | 23° |
| 2026-05-07 14:39 | 14.91055 | -22.45240 | 34981 ft | 540 kts | 23° |
| 2026-05-07 14:39 | 14.97666 | -22.41517 | 34983 ft | 540 kts | 23° |
| 2026-05-07 14:40 | 15.04271 | -22.37782 | 34980 ft | 540 kts | 23° |
| 2026-05-07 14:40 | 15.10827 | -22.34049 | 34982 ft | 540 kts | 23° |
| 2026-05-07 14:41 | 15.17453 | -22.30338 | 34984 ft | 540 kts | 23° |
| 2026-05-07 14:41 | 15.24064 | -22.26617 | 34988 ft | 540 kts | 22° |
| 2026-05-07 14:42 | 15.30630 | -22.22913 | 34984 ft | 540 kts | 22° |
| 2026-05-07 14:42 | 15.37231 | -22.19170 | 34985 ft | 540 kts | 23° |
| 2026-05-07 14:43 | 15.43823 | -22.15400 | 34983 ft | 540 kts | 22° |
| 2026-05-07 14:43 | 15.50437 | -22.11673 | 34982 ft | 540 kts | 22° |
| 2026-05-07 14:44 | 15.56985 | -22.07944 | 34992 ft | 540 kts | 23° |
| 2026-05-07 14:44 | 15.63597 | -22.04223 | 34984 ft | 538 kts | 22° |
| 2026-05-07 14:45 | 15.70178 | -22.00514 | 34985 ft | 538 kts | 23° |
| 2026-05-07 14:45 | 15.76701 | -21.96778 | 34988 ft | 538 kts | 23° |
| 2026-05-07 14:46 | 15.83289 | -21.93053 | 34983 ft | 538 kts | 22° |
| 2026-05-07 14:46 | 15.89881 | -21.89323 | 35010 ft | 538 kts | 24° |
| 2026-05-07 14:47 | 15.96375 | -21.85603 | 34988 ft | 534 kts | 24° |
| 2026-05-07 14:47 | 16.02875 | -21.81837 | 34990 ft | 533 kts | 24° |
| 2026-05-07 14:48 | 16.09363 | -21.78090 | 34987 ft | 534 kts | 23° |
| 2026-05-07 14:48 | 16.15844 | -21.74378 | 34988 ft | 535 kts | 23° |
| 2026-05-07 14:49 | 16.22370 | -21.70626 | 34986 ft | 536 kts | 24° |
| 2026-05-07 14:49 | 16.28900 | -21.66870 | 34986 ft | 532 kts | 24° |
| 2026-05-07 14:50 | 16.35368 | -21.63179 | 34989 ft | 529 kts | 24° |
| 2026-05-07 14:50 | 16.41820 | -21.59452 | 34989 ft | 529 kts | 24° |
| 2026-05-07 14:51 | 16.48238 | -21.55795 | 34983 ft | 529 kts | 24° |
| 2026-05-07 14:51 | 16.54697 | -21.52095 | 34987 ft | 529 kts | 24° |
| 2026-05-07 14:52 | 16.61140 | -21.48370 | 34985 ft | 529 kts | 24° |
| 2026-05-07 14:52 | 16.67580 | -21.44688 | 34990 ft | 526 kts | 24° |
| 2026-05-07 14:53 | 16.73966 | -21.41033 | 34982 ft | 526 kts | 25° |
| 2026-05-07 14:53 | 16.80389 | -21.37341 | 34989 ft | 526 kts | 25° |
| 2026-05-07 14:54 | 16.85711 | -21.34240 | 34985 ft | 526 kts | 24° |
| 2026-05-07 14:54 | 16.92135 | -21.30574 | 34990 ft | 526 kts | 24° |
| 2026-05-07 14:55 | 16.98568 | -21.26885 | 34985 ft | 526 kts | 25° |
| 2026-05-07 14:55 | 17.04977 | -21.23166 | 34987 ft | 526 kts | 25° |
| 2026-05-07 14:56 | 17.11344 | -21.19469 | 34985 ft | 526 kts | 25° |
| 2026-05-07 14:56 | 17.17761 | -21.15745 | 34982 ft | 526 kts | 25° |
| 2026-05-07 14:57 | 17.24172 | -21.12023 | 34984 ft | 526 kts | 25° |
| 2026-05-07 14:57 | 17.30528 | -21.08307 | 34987 ft | 526 kts | 25° |
| 2026-05-07 14:58 | 17.36914 | -21.04595 | 34986 ft | 523 kts | 25° |
| 2026-05-07 14:58 | 17.43282 | -21.00909 | 34981 ft | 523 kts | 25° |
| 2026-05-07 14:59 | 17.49614 | -20.97219 | 34981 ft | 523 kts | 24° |
| 2026-05-07 14:59 | 17.55998 | -20.93564 | 34980 ft | 523 kts | 25° |
| 2026-05-07 15:00 | 17.62357 | -20.89839 | 34995 ft | 523 kts | 25° |
| 2026-05-07 15:00 | 17.68696 | -20.86100 | 34982 ft | 520 kts | 25° |
| 2026-05-07 15:01 | 17.75047 | -20.82496 | 34980 ft | 518 kts | 25° |
| 2026-05-07 15:01 | 17.81354 | -20.78801 | 34980 ft | 519 kts | 25° |
| 2026-05-07 15:02 | 17.87635 | -20.75136 | 34987 ft | 519 kts | 25° |
| 2026-05-07 15:02 | 17.93959 | -20.71439 | 34979 ft | 519 kts | 25° |
| 2026-05-07 15:03 | 18.00261 | -20.67728 | 34987 ft | 518 kts | 26° |
| 2026-05-07 15:03 | 18.06492 | -20.64047 | 34978 ft | 517 kts | 25° |
| 2026-05-07 15:04 | 18.12799 | -20.60400 | 34998 ft | 516 kts | 25° |
| 2026-05-07 15:04 | 18.15929 | -20.58573 | 35105 ft | 515 kts | 25° |
| 2026-05-07 15:04 | 18.19078 | -20.56724 | 35226 ft | 516 kts | 26° |
| 2026-05-07 15:05 | 18.22223 | -20.54863 | 35350 ft | 517 kts | 26° |
| 2026-05-07 15:05 | 18.25363 | -20.53008 | 35472 ft | 517 kts | 25° |
| 2026-05-07 15:05 | 18.28475 | -20.51197 | 35594 ft | 517 kts | 25° |
| 2026-05-07 15:05 | 18.31623 | -20.49359 | 35727 ft | 518 kts | 25° |
| 2026-05-07 15:06 | 18.34761 | -20.47495 | 35878 ft | 517 kts | 26° |
| 2026-05-07 15:06 | 18.37904 | -20.45633 | 35937 ft | 518 kts | 25° |
| 2026-05-07 15:06 | 18.44216 | -20.41962 | 35972 ft | 519 kts | 25° |
| 2026-05-07 15:07 | 18.50517 | -20.38241 | 35975 ft | 519 kts | 25° |
| 2026-05-07 15:07 | 18.56830 | -20.34533 | 35981 ft | 519 kts | 25° |
| 2026-05-07 15:08 | 18.63097 | -20.30839 | 35979 ft | 519 kts | 26° |
| 2026-05-07 15:08 | 18.69437 | -20.27075 | 35987 ft | 518 kts | 25° |
| 2026-05-07 15:09 | 18.75671 | -20.23433 | 35981 ft | 514 kts | 25° |
| 2026-05-07 15:09 | 18.81912 | -20.19733 | 35977 ft | 514 kts | 26° |
| 2026-05-07 15:10 | 18.88116 | -20.16051 | 35980 ft | 513 kts | 25° |
| 2026-05-07 15:10 | 18.94361 | -20.12360 | 35975 ft | 514 kts | 26° |
| 2026-05-07 15:11 | 19.00613 | -20.08650 | 36001 ft | 516 kts | 26° |
| 2026-05-07 15:11 | 19.06853 | -20.04934 | 35976 ft | 512 kts | 26° |
| 2026-05-07 15:12 | 19.13049 | -20.01248 | 35980 ft | 510 kts | 26° |
| 2026-05-07 15:12 | 19.19233 | -19.97569 | 35984 ft | 510 kts | 26° |
| 2026-05-07 15:13 | 19.25388 | -19.93923 | 35984 ft | 509 kts | 25° |
| 2026-05-07 15:13 | 19.31573 | -19.90245 | 35975 ft | 510 kts | 26° |
| 2026-05-07 15:14 | 19.37745 | -19.86510 | 35980 ft | 509 kts | 26° |
| 2026-05-07 15:14 | 19.43910 | -19.82880 | 35981 ft | 504 kts | 26° |
| 2026-05-07 15:15 | 19.50003 | -19.79266 | 35973 ft | 505 kts | 27° |
| 2026-05-07 15:15 | 19.56116 | -19.75579 | 35986 ft | 506 kts | 26° |
| 2026-05-07 15:16 | 19.62260 | -19.71924 | 35977 ft | 507 kts | 26° |
| 2026-05-07 15:16 | 19.68381 | -19.68186 | 35981 ft | 507 kts | 27° |
| 2026-05-07 15:17 | 19.74491 | -19.64457 | 35976 ft | 504 kts | 27° |
| 2026-05-07 15:17 | 19.80564 | -19.60818 | 35978 ft | 503 kts | 26° |
| 2026-05-07 15:18 | 19.86683 | -19.57213 | 35979 ft | 503 kts | 26° |
| 2026-05-07 15:18 | 19.92763 | -19.53508 | 35979 ft | 503 kts | 27° |
| 2026-05-07 15:19 | 19.98857 | -19.49839 | 35977 ft | 503 kts | 26° |
| 2026-05-07 15:19 | 20.04959 | -19.46180 | 35988 ft | 503 kts | 27° |
| 2026-05-07 15:20 | 20.11008 | -19.42533 | 35978 ft | 502 kts | 26° |
| 2026-05-07 15:20 | 20.17084 | -19.38833 | 35981 ft | 503 kts | 27° |
| 2026-05-07 15:21 | 20.23173 | -19.35134 | 35980 ft | 503 kts | 27° |
| 2026-05-07 15:21 | 20.29253 | -19.31456 | 35984 ft | 502 kts | 26° |
| 2026-05-07 15:22 | 20.35343 | -19.27799 | 35978 ft | 503 kts | 26° |
| 2026-05-07 15:22 | 20.41403 | -19.24136 | 35975 ft | 503 kts | 26° |
| 2026-05-07 15:23 | 20.47508 | -19.20504 | 35981 ft | 502 kts | 26° |
| 2026-05-07 15:23 | 20.53583 | -19.16794 | 35977 ft | 503 kts | 27° |
| 2026-05-07 15:24 | 20.59645 | -19.13130 | 35981 ft | 502 kts | 26° |
| 2026-05-07 15:24 | 20.65721 | -19.09417 | 35978 ft | 503 kts | 27° |
| 2026-05-07 15:25 | 20.71833 | -19.05720 | 35986 ft | 504 kts | 26° |
| 2026-05-07 15:25 | 20.77927 | -19.02046 | 35975 ft | 502 kts | 26° |
| 2026-05-07 15:26 | 20.84023 | -18.98368 | 35973 ft | 503 kts | 27° |
| 2026-05-07 15:26 | 20.90052 | -18.94681 | 35980 ft | 502 kts | 26° |
| 2026-05-07 15:27 | 20.96120 | -18.90969 | 35971 ft | 503 kts | 27° |
| 2026-05-07 15:27 | 21.02220 | -18.87289 | 35976 ft | 502 kts | 26° |
| 2026-05-07 15:28 | 21.08305 | -18.83610 | 35969 ft | 502 kts | 27° |
| 2026-05-07 15:28 | 21.14354 | -18.79872 | 35983 ft | 501 kts | 26° |
| 2026-05-07 15:29 | 21.20390 | -18.76130 | 35973 ft | 501 kts | 27° |
| 2026-05-07 15:29 | 21.26391 | -18.72420 | 35975 ft | 501 kts | 26° |
| 2026-05-07 15:30 | 21.32467 | -18.68744 | 35982 ft | 501 kts | 26° |
| 2026-05-07 15:30 | 21.38511 | -18.64997 | 35974 ft | 501 kts | 26° |
| 2026-05-07 15:31 | 21.44553 | -18.61272 | 35984 ft | 500 kts | 26° |
| 2026-05-07 15:31 | 21.50588 | -18.57576 | 35981 ft | 499 kts | 26° |
| 2026-05-07 15:32 | 21.56604 | -18.53839 | 35974 ft | 499 kts | 27° |
| 2026-05-07 15:32 | 21.62598 | -18.50169 | 35978 ft | 499 kts | 26° |
| 2026-05-07 15:33 | 21.68621 | -18.46436 | 35978 ft | 499 kts | 26° |
| 2026-05-07 15:33 | 21.74653 | -18.42701 | 35984 ft | 499 kts | 27° |
| 2026-05-07 15:34 | 21.80662 | -18.38943 | 35980 ft | 499 kts | 26° |
| 2026-05-07 15:34 | 21.86647 | -18.35232 | 35975 ft | 499 kts | 26° |
| 2026-05-07 15:35 | 21.92678 | -18.31504 | 35981 ft | 499 kts | 26° |
| 2026-05-07 15:35 | 21.98695 | -18.27748 | 35977 ft | 499 kts | 26° |
| 2026-05-07 15:36 | 22.04741 | -18.24055 | 35975 ft | 499 kts | 26° |
| 2026-05-07 15:36 | 22.10775 | -18.20335 | 35985 ft | 499 kts | 26° |
| 2026-05-07 15:37 | 22.16771 | -18.16647 | 35979 ft | 499 kts | 26° |
| 2026-05-07 15:37 | 22.22779 | -18.12845 | 35980 ft | 500 kts | 27° |
| 2026-05-07 15:38 | 22.28789 | -18.09035 | 35980 ft | 499 kts | 26° |
| 2026-05-07 15:38 | 22.34788 | -18.05337 | 35978 ft | 500 kts | 26° |
| 2026-05-07 15:39 | 22.40802 | -18.01560 | 35992 ft | 500 kts | 27° |
| 2026-05-07 15:39 | 22.46851 | -17.97795 | 35983 ft | 500 kts | 26° |
| 2026-05-07 15:40 | 22.52875 | -17.94018 | 35981 ft | 500 kts | 27° |
| 2026-05-07 15:40 | 22.58893 | -17.90226 | 35984 ft | 500 kts | 26° |
| 2026-05-07 15:41 | 22.64921 | -17.86544 | 35977 ft | 500 kts | 26° |
| 2026-05-07 15:41 | 22.70952 | -17.82742 | 35981 ft | 500 kts | 26° |
| 2026-05-07 15:42 | 22.77000 | -17.78995 | 35986 ft | 501 kts | 26° |
| 2026-05-07 15:42 | 22.82993 | -17.75219 | 35978 ft | 501 kts | 26° |
| 2026-05-07 15:43 | 22.89019 | -17.71393 | 35983 ft | 501 kts | 26° |
| 2026-05-07 15:43 | 22.94043 | -17.68246 | 35978 ft | 501 kts | 26° |
| 2026-05-07 15:44 | 23.00067 | -17.64419 | 35984 ft | 501 kts | 26° |
| 2026-05-07 15:44 | 23.06115 | -17.60651 | 35978 ft | 501 kts | 26° |
| 2026-05-07 15:45 | 23.12098 | -17.56839 | 35973 ft | 501 kts | 26° |
| 2026-05-07 15:45 | 23.18126 | -17.53009 | 35991 ft | 501 kts | 26° |
| 2026-05-07 15:46 | 23.27186 | -17.47268 | 35979 ft | 501 kts | 26° |
| 2026-05-07 15:47 | 23.33179 | -17.43467 | 35978 ft | 501 kts | 26° |
| 2026-05-07 15:47 | 23.39203 | -17.39646 | 35973 ft | 502 kts | 26° |
| 2026-05-07 15:48 | 23.45234 | -17.35812 | 35985 ft | 502 kts | 26° |
| 2026-05-07 15:48 | 23.51267 | -17.31975 | 35979 ft | 502 kts | 26° |
| 2026-05-07 15:49 | 23.57291 | -17.28132 | 35989 ft | 502 kts | 26° |
| 2026-05-07 15:49 | 23.63321 | -17.24295 | 35984 ft | 502 kts | 26° |
| 2026-05-07 15:50 | 23.69321 | -17.20469 | 35985 ft | 502 kts | 26° |
| 2026-05-07 15:50 | 23.75347 | -17.16614 | 35984 ft | 502 kts | 26° |
| 2026-05-07 15:51 | 23.81378 | -17.12738 | 35988 ft | 502 kts | 26° |
| 2026-05-07 15:51 | 23.87404 | -17.08863 | 35986 ft | 502 kts | 26° |
| 2026-05-07 15:52 | 23.93446 | -17.05041 | 35991 ft | 502 kts | 26° |
| 2026-05-07 15:52 | 23.99420 | -17.01151 | 35983 ft | 502 kts | 26° |
| 2026-05-07 15:53 | 24.05437 | -16.97284 | 36004 ft | 501 kts | 25° |
| 2026-05-07 15:53 | 24.11470 | -16.93464 | 35991 ft | 501 kts | 25° |
| 2026-05-07 15:54 | 24.17491 | -16.89573 | 35985 ft | 502 kts | 26° |
| 2026-05-07 15:54 | 24.23492 | -16.85642 | 35987 ft | 502 kts | 27° |
| 2026-05-07 15:55 | 24.29493 | -16.81712 | 35988 ft | 502 kts | 25° |
| 2026-05-07 15:55 | 24.35530 | -16.77969 | 35991 ft | 501 kts | 25° |
| 2026-05-07 15:56 | 24.41552 | -16.74085 | 35995 ft | 503 kts | 26° |
| 2026-05-07 15:56 | 24.47550 | -16.70109 | 35988 ft | 503 kts | 26° |
| 2026-05-07 15:57 | 24.53572 | -16.66183 | 35990 ft | 503 kts | 26° |
| 2026-05-07 15:57 | 24.59584 | -16.62206 | 35986 ft | 503 kts | 27° |
| 2026-05-07 15:58 | 24.65563 | -16.58306 | 35986 ft | 502 kts | 24° |
| 2026-05-07 15:58 | 24.71638 | -16.54511 | 36012 ft | 502 kts | 25° |
| 2026-05-07 15:59 | 24.77695 | -16.50650 | 35982 ft | 503 kts | 25° |
| 2026-05-07 15:59 | 24.83745 | -16.46743 | 35998 ft | 503 kts | 25° |
| 2026-05-07 16:00 | 24.89697 | -16.42740 | 35990 ft | 504 kts | 26° |
| 2026-05-07 16:00 | 24.95713 | -16.38759 | 35982 ft | 503 kts | 25° |
| 2026-05-07 16:01 | 25.01939 | -16.35447 | 35926 ft | 487 kts | 5° |
| 2026-05-07 16:01 | 25.05246 | -16.35076 | 35984 ft | 471 kts | 353° |
| 2026-05-07 16:01 | 25.08511 | -16.35241 | 36034 ft | 470 kts | 351° |
| 2026-05-07 16:02 | 25.15085 | -16.35352 | 35999 ft | 478 kts | 356° |
| 2026-05-07 16:02 | 25.21739 | -16.35039 | 35996 ft | 478 kts | 356° |
| 2026-05-07 16:03 | 25.28407 | -16.34776 | 35995 ft | 478 kts | 355° |
| 2026-05-07 16:03 | 25.35042 | -16.34585 | 36021 ft | 476 kts | 355° |
| 2026-05-07 16:04 | 25.41663 | -16.34394 | 36003 ft | 475 kts | 355° |
| 2026-05-07 16:04 | 25.48234 | -16.34166 | 36000 ft | 475 kts | 356° |
| 2026-05-07 16:05 | 25.54852 | -16.33885 | 36001 ft | 475 kts | 356° |
| 2026-05-07 16:05 | 25.61468 | -16.33637 | 36000 ft | 475 kts | 355° |
| 2026-05-07 16:06 | 25.68075 | -16.33426 | 36007 ft | 474 kts | 355° |
| 2026-05-07 16:06 | 25.74676 | -16.33201 | 36000 ft | 474 kts | 356° |
| 2026-05-07 16:07 | 25.81223 | -16.32910 | 36004 ft | 473 kts | 355° |
| 2026-05-07 16:07 | 25.87811 | -16.32660 | 35998 ft | 474 kts | 355° |
| 2026-05-07 16:08 | 25.94414 | -16.32475 | 36031 ft | 473 kts | 355° |
| 2026-05-07 16:08 | 26.00947 | -16.32277 | 36006 ft | 473 kts | 355° |
| 2026-05-07 16:09 | 26.07534 | -16.31962 | 36003 ft | 473 kts | 355° |
| 2026-05-07 16:09 | 26.14111 | -16.31756 | 36003 ft | 473 kts | 355° |
| 2026-05-07 16:10 | 26.20692 | -16.31539 | 36000 ft | 473 kts | 355° |
| 2026-05-07 16:10 | 26.27240 | -16.31240 | 36013 ft | 473 kts | 355° |
| 2026-05-07 16:11 | 26.33816 | -16.30998 | 36014 ft | 472 kts | 355° |
| 2026-05-07 16:11 | 26.37103 | -16.30892 | 36119 ft | 471 kts | 355° |
| 2026-05-07 16:11 | 26.40383 | -16.30776 | 36253 ft | 472 kts | 355° |
| 2026-05-07 16:11 | 26.43678 | -16.30661 | 36379 ft | 471 kts | 354° |
| 2026-05-07 16:12 | 26.46911 | -16.30578 | 36505 ft | 471 kts | 354° |
| 2026-05-07 16:12 | 26.50191 | -16.30477 | 36632 ft | 471 kts | 355° |
| 2026-05-07 16:12 | 26.53468 | -16.30335 | 36790 ft | 471 kts | 355° |
| 2026-05-07 16:12 | 26.56749 | -16.30160 | 36923 ft | 471 kts | 355° |
| 2026-05-07 16:13 | 26.60018 | -16.30029 | 37052 ft | 470 kts | 354° |
| 2026-05-07 16:13 | 26.63282 | -16.29926 | 37184 ft | 469 kts | 354° |
| 2026-05-07 16:13 | 26.66545 | -16.29820 | 37317 ft | 469 kts | 354° |
| 2026-05-07 16:13 | 26.69810 | -16.29728 | 37452 ft | 468 kts | 354° |
| 2026-05-07 16:14 | 26.73066 | -16.29623 | 37586 ft | 468 kts | 354° |
| 2026-05-07 16:14 | 26.76332 | -16.29467 | 37723 ft | 468 kts | 354° |
| 2026-05-07 16:14 | 26.79582 | -16.29334 | 37869 ft | 467 kts | 354° |
| 2026-05-07 16:15 | 26.86063 | -16.28979 | 37959 ft | 477 kts | 4° |
| 2026-05-07 16:15 | 26.89259 | -16.27810 | 37922 ft | 490 kts | 21° |
| 2026-05-07 16:15 | 26.92210 | -16.25864 | 38049 ft | 494 kts | 25° |
| 2026-05-07 16:16 | 26.98196 | -16.22008 | 38011 ft | 497 kts | 22° |
| 2026-05-07 16:16 | 27.04161 | -16.18133 | 38008 ft | 499 kts | 24° |
| 2026-05-07 16:17 | 27.10069 | -16.14018 | 38007 ft | 500 kts | 25° |
| 2026-05-07 16:17 | 27.15956 | -16.09811 | 38012 ft | 501 kts | 26° |
| 2026-05-07 16:18 | 27.21811 | -16.05614 | 38004 ft | 498 kts | 25° |
| 2026-05-07 16:18 | 27.27623 | -16.01451 | 38004 ft | 498 kts | 26° |
| 2026-05-07 16:19 | 27.33429 | -15.97184 | 38008 ft | 498 kts | 26° |
| 2026-05-07 16:19 | 27.39253 | -15.92995 | 38003 ft | 495 kts | 24° |
| 2026-05-07 16:20 | 27.45112 | -15.88879 | 38031 ft | 496 kts | 25° |
| 2026-05-07 16:20 | 27.50891 | -15.84567 | 37992 ft | 498 kts | 26° |
| 2026-05-07 16:21 | 27.56668 | -15.80316 | 38011 ft | 498 kts | 25° |
| 2026-05-07 16:21 | 27.62484 | -15.76068 | 37983 ft | 497 kts | 25° |
| 2026-05-07 16:22 | 27.68316 | -15.71858 | 37983 ft | 498 kts | 26° |
| 2026-05-07 16:22 | 27.74087 | -15.67578 | 37989 ft | 498 kts | 25° |
| 2026-05-07 16:23 | 27.79929 | -15.63342 | 38004 ft | 499 kts | 26° |
| 2026-05-07 16:23 | 27.85734 | -15.59028 | 37997 ft | 498 kts | 25° |
| 2026-05-07 16:24 | 27.91532 | -15.54761 | 38001 ft | 497 kts | 25° |
| 2026-05-07 16:24 | 27.97304 | -15.50507 | 37992 ft | 498 kts | 25° |
| 2026-05-07 16:25 | 28.03106 | -15.46229 | 37996 ft | 498 kts | 25° |
| 2026-05-07 16:25 | 28.09165 | -15.42733 | 38002 ft | 477 kts | 9° |
| 2026-05-07 16:26 | 28.15523 | -15.40526 | 37996 ft | 481 kts | 9° |
| 2026-05-07 16:26 | 28.21877 | -15.38046 | 37994 ft | 483 kts | 10° |
| 2026-05-07 16:27 | 28.28256 | -15.35720 | 37997 ft | 480 kts | 8° |
| 2026-05-07 16:27 | 28.34618 | -15.33481 | 37991 ft | 481 kts | 9° |
| 2026-05-07 16:28 | 28.41003 | -15.31180 | 37994 ft | 481 kts | 8° |
| 2026-05-07 16:28 | 28.47415 | -15.28942 | 37992 ft | 482 kts | 8° |
| 2026-05-07 16:29 | 28.53806 | -15.26704 | 38012 ft | 483 kts | 8° |
| 2026-05-07 16:29 | 28.60231 | -15.24418 | 37992 ft | 482 kts | 8° |
| 2026-05-07 16:30 | 28.66658 | -15.22198 | 38001 ft | 483 kts | 8° |
| 2026-05-07 16:30 | 28.73097 | -15.19960 | 38010 ft | 484 kts | 8° |
| 2026-05-07 16:31 | 28.79503 | -15.17691 | 38011 ft | 484 kts | 8° |
| 2026-05-07 16:31 | 28.85944 | -15.15418 | 38010 ft | 484 kts | 7° |
| 2026-05-07 16:32 | 28.92397 | -15.13177 | 38009 ft | 485 kts | 8° |
| 2026-05-07 16:32 | 28.98799 | -15.10867 | 38016 ft | 485 kts | 8° |
| 2026-05-07 16:33 | 29.04164 | -15.08947 | 38017 ft | 486 kts | 8° |
| 2026-05-07 16:33 | 29.10634 | -15.06636 | 38011 ft | 487 kts | 8° |
| 2026-05-07 16:34 | 29.17107 | -15.04318 | 38013 ft | 487 kts | 8° |
| 2026-05-07 16:34 | 29.23575 | -15.02015 | 38012 ft | 487 kts | 8° |
| 2026-05-07 16:35 | 29.30054 | -14.99699 | 38021 ft | 488 kts | 8° |
| 2026-05-07 16:35 | 29.36554 | -14.97379 | 38011 ft | 490 kts | 8° |
| 2026-05-07 16:36 | 29.43062 | -14.95052 | 38017 ft | 490 kts | 8° |
| 2026-05-07 16:36 | 29.49528 | -14.92735 | 38008 ft | 490 kts | 8° |
| 2026-05-07 16:37 | 29.56037 | -14.90392 | 38050 ft | 490 kts | 8° |
| 2026-05-07 16:37 | 29.62574 | -14.88049 | 38009 ft | 492 kts | 8° |
| 2026-05-07 16:38 | 29.69087 | -14.85708 | 38006 ft | 493 kts | 8° |
| 2026-05-07 16:38 | 29.75645 | -14.83343 | 38012 ft | 493 kts | 8° |
| 2026-05-07 16:39 | 29.82195 | -14.80977 | 38007 ft | 493 kts | 8° |
| 2026-05-07 16:39 | 29.88745 | -14.78599 | 38010 ft | 493 kts | 8° |
| 2026-05-07 16:40 | 29.95258 | -14.76261 | 38010 ft | 493 kts | 8° |
| 2026-05-07 16:40 | 30.01806 | -14.73890 | 38007 ft | 493 kts | 8° |
| 2026-05-07 16:41 | 30.08369 | -14.71515 | 38008 ft | 493 kts | 8° |
| 2026-05-07 16:41 | 30.14919 | -14.69129 | 38024 ft | 495 kts | 7° |
| 2026-05-07 16:42 | 30.21512 | -14.66731 | 38007 ft | 498 kts | 7° |
| 2026-05-07 16:42 | 30.28089 | -14.64337 | 38009 ft | 499 kts | 7° |
| 2026-05-07 16:43 | 30.34717 | -14.61919 | 38006 ft | 499 kts | 7° |
| 2026-05-07 16:43 | 30.41340 | -14.59485 | 38005 ft | 500 kts | 7° |
| 2026-05-07 16:44 | 30.47995 | -14.57048 | 37999 ft | 501 kts | 7° |
| 2026-05-07 16:44 | 30.54655 | -14.54615 | 38007 ft | 502 kts | 7° |
| 2026-05-07 16:45 | 30.61297 | -14.52209 | 38004 ft | 503 kts | 7° |
| 2026-05-07 16:45 | 30.67973 | -14.49738 | 38007 ft | 503 kts | 7° |
| 2026-05-07 16:46 | 30.74660 | -14.47267 | 38017 ft | 504 kts | 7° |
| 2026-05-07 16:46 | 30.81380 | -14.44794 | 38003 ft | 506 kts | 7° |
| 2026-05-07 16:47 | 30.88063 | -14.42308 | 38002 ft | 510 kts | 10° |
| 2026-05-07 16:47 | 30.94619 | -14.38912 | 37997 ft | 520 kts | 17° |
| 2026-05-07 16:48 | 31.01160 | -14.35281 | 38017 ft | 519 kts | 15° |
| 2026-05-07 16:48 | 31.07731 | -14.31744 | 38002 ft | 522 kts | 16° |
| 2026-05-07 16:49 | 31.14263 | -14.28117 | 37995 ft | 523 kts | 16° |
| 2026-05-07 16:49 | 31.20866 | -14.24490 | 37995 ft | 523 kts | 16° |
| 2026-05-07 16:50 | 31.27442 | -14.20849 | 37996 ft | 523 kts | 16° |
| 2026-05-07 16:50 | 31.34034 | -14.17183 | 38002 ft | 525 kts | 17° |
| 2026-05-07 16:51 | 31.40589 | -14.13534 | 37994 ft | 526 kts | 17° |
| 2026-05-07 16:51 | 31.47205 | -14.09859 | 37996 ft | 526 kts | 17° |
| 2026-05-07 16:52 | 31.53816 | -14.06179 | 37994 ft | 526 kts | 17° |
| 2026-05-07 16:52 | 31.60447 | -14.02485 | 38007 ft | 528 kts | 17° |
| 2026-05-07 16:53 | 31.67093 | -13.98781 | 37991 ft | 529 kts | 17° |
| 2026-05-07 16:53 | 31.73750 | -13.95041 | 37989 ft | 530 kts | 17° |
| 2026-05-07 16:54 | 31.80408 | -13.91322 | 37993 ft | 530 kts | 17° |
| 2026-05-07 16:54 | 31.87040 | -13.87622 | 38027 ft | 530 kts | 18° |
| 2026-05-07 16:55 | 31.93710 | -13.83866 | 37983 ft | 532 kts | 18° |
| 2026-05-07 16:55 | 32.00400 | -13.80093 | 37988 ft | 532 kts | 18° |
| 2026-05-07 16:56 | 32.07032 | -13.76350 | 37987 ft | 532 kts | 18° |
| 2026-05-07 16:56 | 32.17053 | -13.70668 | 38013 ft | 533 kts | 18° |
| 2026-05-07 16:57 | 32.23754 | -13.66880 | 37995 ft | 534 kts | 18° |
| 2026-05-07 16:57 | 32.30472 | -13.63104 | 37993 ft | 534 kts | 18° |
| 2026-05-07 16:58 | 32.37173 | -13.59266 | 37990 ft | 535 kts | 19° |
| 2026-05-07 16:58 | 32.43854 | -13.55487 | 38003 ft | 535 kts | 19° |
| 2026-05-07 16:59 | 32.50581 | -13.51670 | 37992 ft | 536 kts | 19° |
| 2026-05-07 16:59 | 32.57307 | -13.47811 | 37978 ft | 536 kts | 19° |
| 2026-05-07 17:00 | 32.64027 | -13.43976 | 37980 ft | 536 kts | 19° |
| 2026-05-07 17:00 | 32.70740 | -13.40127 | 37985 ft | 536 kts | 19° |
| 2026-05-07 17:01 | 32.77409 | -13.36259 | 37994 ft | 536 kts | 20° |
| 2026-05-07 17:01 | 32.84130 | -13.32420 | 37979 ft | 535 kts | 19° |
| 2026-05-07 17:02 | 32.90854 | -13.28595 | 37981 ft | 536 kts | 19° |
| 2026-05-07 17:02 | 32.97568 | -13.24700 | 38024 ft | 536 kts | 20° |
| 2026-05-07 17:03 | 33.04237 | -13.20840 | 37993 ft | 537 kts | 20° |
| 2026-05-07 17:03 | 33.10982 | -13.16952 | 37986 ft | 537 kts | 20° |
| 2026-05-07 17:04 | 33.17719 | -13.13049 | 37963 ft | 538 kts | 20° |
| 2026-05-07 17:04 | 33.24402 | -13.09133 | 37984 ft | 538 kts | 20° |
| 2026-05-07 17:05 | 33.31131 | -13.05190 | 38001 ft | 537 kts | 20° |
| 2026-05-07 17:05 | 33.37866 | -13.01299 | 37979 ft | 538 kts | 20° |
| 2026-05-07 17:06 | 33.44573 | -12.97404 | 37983 ft | 538 kts | 21° |
| 2026-05-07 17:06 | 33.51295 | -12.93437 | 37981 ft | 538 kts | 21° |
| 2026-05-07 17:07 | 33.58043 | -12.89523 | 37988 ft | 538 kts | 20° |
| 2026-05-07 17:07 | 33.64793 | -12.85596 | 37979 ft | 539 kts | 22° |
| 2026-05-07 17:08 | 33.71468 | -12.81610 | 37981 ft | 538 kts | 21° |
| 2026-05-07 17:08 | 33.78228 | -12.77700 | 37979 ft | 539 kts | 21° |
| 2026-05-07 17:09 | 33.84965 | -12.73735 | 37976 ft | 538 kts | 21° |
| 2026-05-07 17:09 | 33.91680 | -12.69738 | 37975 ft | 538 kts | 21° |
| 2026-05-07 17:10 | 33.98397 | -12.65773 | 37975 ft | 537 kts | 21° |
| 2026-05-07 17:10 | 34.05080 | -12.61819 | 37974 ft | 538 kts | 21° |
| 2026-05-07 17:11 | 34.11799 | -12.57839 | 37988 ft | 538 kts | 21° |
| 2026-05-07 17:11 | 34.18530 | -12.53844 | 37977 ft | 539 kts | 22° |
| 2026-05-07 17:12 | 34.25246 | -12.49813 | 37978 ft | 539 kts | 22° |
| 2026-05-07 17:12 | 34.31971 | -12.45802 | 37972 ft | 539 kts | 22° |
| 2026-05-07 17:13 | 34.38710 | -12.41793 | 37974 ft | 539 kts | 22° |
| 2026-05-07 17:13 | 34.45429 | -12.37765 | 37954 ft | 539 kts | 22° |
| 2026-05-07 17:14 | 34.52139 | -12.33732 | 37975 ft | 538 kts | 22° |
| 2026-05-07 17:14 | 34.58808 | -12.29729 | 37973 ft | 538 kts | 22° |
| 2026-05-07 17:15 | 34.65512 | -12.25690 | 37967 ft | 538 kts | 22° |
| 2026-05-07 17:15 | 34.72218 | -12.21640 | 37967 ft | 538 kts | 22° |
| 2026-05-07 17:16 | 34.78930 | -12.17589 | 37969 ft | 538 kts | 22° |
| 2026-05-07 17:16 | 34.85642 | -12.13524 | 37963 ft | 538 kts | 22° |
| 2026-05-07 17:17 | 34.92356 | -12.09452 | 37981 ft | 539 kts | 23° |
| 2026-05-07 17:17 | 34.99026 | -12.05397 | 37970 ft | 538 kts | 23° |
| 2026-05-07 17:18 | 35.05747 | -12.01306 | 37964 ft | 538 kts | 22° |
| 2026-05-07 17:18 | 35.12442 | -11.97224 | 37969 ft | 537 kts | 23° |
| 2026-05-07 17:19 | 35.19128 | -11.93132 | 37971 ft | 537 kts | 23° |
| 2026-05-07 17:19 | 35.25783 | -11.89072 | 37968 ft | 537 kts | 23° |
| 2026-05-07 17:20 | 35.32472 | -11.84968 | 37967 ft | 538 kts | 23° |
| 2026-05-07 17:20 | 35.39160 | -11.80839 | 37967 ft | 538 kts | 23° |
| 2026-05-07 17:21 | 35.45858 | -11.76742 | 37973 ft | 538 kts | 23° |
| 2026-05-07 17:21 | 35.51418 | -11.73316 | 37963 ft | 538 kts | 23° |
| 2026-05-07 17:22 | 35.58089 | -11.69180 | 37963 ft | 538 kts | 23° |
| 2026-05-07 17:22 | 35.64781 | -11.65038 | 37958 ft | 538 kts | 23° |
| 2026-05-07 17:23 | 35.71460 | -11.60881 | 37965 ft | 538 kts | 24° |
| 2026-05-07 17:23 | 35.78139 | -11.56723 | 37969 ft | 538 kts | 24° |
| 2026-05-07 17:24 | 35.84848 | -11.52557 | 37967 ft | 538 kts | 23° |
| 2026-05-07 17:24 | 35.91504 | -11.48452 | 37960 ft | 538 kts | 23° |
| 2026-05-07 17:25 | 35.98134 | -11.44142 | 37971 ft | 540 kts | 27° |
| 2026-05-07 17:25 | 36.04578 | -11.39341 | 37966 ft | 540 kts | 29° |
| 2026-05-07 17:26 | 36.11039 | -11.34592 | 37962 ft | 539 kts | 25° |
| 2026-05-07 17:26 | 36.17883 | -11.30974 | 37949 ft | 535 kts | 18° |
| 2026-05-07 17:27 | 36.24745 | -11.27365 | 37974 ft | 535 kts | 20° |
| 2026-05-07 17:27 | 36.31535 | -11.23701 | 37963 ft | 535 kts | 20° |
| 2026-05-07 17:28 | 36.38363 | -11.19987 | 37963 ft | 535 kts | 20° |
| 2026-05-07 17:28 | 36.45182 | -11.16268 | 37962 ft | 535 kts | 20° |
| 2026-05-07 17:29 | 36.52019 | -11.12538 | 37959 ft | 535 kts | 20° |
| 2026-05-07 17:29 | 36.58825 | -11.08951 | 37972 ft | 534 kts | 19° |
| 2026-05-07 17:30 | 36.65706 | -11.05438 | 37965 ft | 534 kts | 18° |
| 2026-05-07 17:30 | 36.72597 | -11.01935 | 37990 ft | 534 kts | 18° |
| 2026-05-07 17:31 | 36.79495 | -10.98422 | 37964 ft | 535 kts | 19° |
| 2026-05-07 17:31 | 36.86397 | -10.94897 | 37958 ft | 535 kts | 19° |
| 2026-05-07 17:32 | 36.93249 | -10.91386 | 37950 ft | 535 kts | 18° |
| 2026-05-07 17:32 | 37.00138 | -10.87855 | 37644 ft | 537 kts | 18° |
| 2026-05-07 17:33 | 37.03567 | -10.86093 | 36929 ft | 528 kts | 18° |
| 2026-05-07 17:33 | 37.06942 | -10.84353 | 36258 ft | 521 kts | 19° |
| 2026-05-07 17:33 | 37.10285 | -10.82627 | 35626 ft | 521 kts | 19° |
| 2026-05-07 17:33 | 37.13640 | -10.80896 | 35011 ft | 522 kts | 19° |
| 2026-05-07 17:34 | 37.17020 | -10.79151 | 34398 ft | 524 kts | 19° |
| 2026-05-07 17:34 | 37.20395 | -10.77408 | 33782 ft | 525 kts | 19° |
| 2026-05-07 17:34 | 37.23782 | -10.75657 | 33126 ft | 527 kts | 19° |
| 2026-05-07 17:34 | 37.27125 | -10.73926 | 32474 ft | 526 kts | 20° |
| 2026-05-07 17:35 | 37.30507 | -10.72170 | 31834 ft | 525 kts | 20° |
| 2026-05-07 17:35 | 37.33878 | -10.70417 | 31209 ft | 524 kts | 20° |
| 2026-05-07 17:35 | 37.37259 | -10.68655 | 30594 ft | 523 kts | 21° |
| 2026-05-07 17:35 | 37.40611 | -10.66905 | 30008 ft | 522 kts | 21° |
| 2026-05-07 17:36 | 37.43969 | -10.65149 | 29303 ft | 521 kts | 21° |
| 2026-05-07 17:36 | 37.47308 | -10.63397 | 28620 ft | 521 kts | 21° |
| 2026-05-07 17:36 | 37.50644 | -10.61643 | 27975 ft | 510 kts | 21° |
| 2026-05-07 17:36 | 37.53889 | -10.59931 | 27354 ft | 501 kts | 21° |
| 2026-05-07 17:37 | 37.57094 | -10.58238 | 26750 ft | 495 kts | 21° |
| 2026-05-07 17:37 | 37.60259 | -10.56567 | 26156 ft | 490 kts | 21° |
| 2026-05-07 17:37 | 37.63380 | -10.54917 | 25591 ft | 484 kts | 21° |
| 2026-05-07 17:37 | 37.66434 | -10.53301 | 25208 ft | 478 kts | 21° |
| 2026-05-07 17:38 | 37.69495 | -10.51683 | 25062 ft | 476 kts | 21° |
| 2026-05-07 17:38 | 37.72554 | -10.50065 | 25002 ft | 475 kts | 21° |
| 2026-05-07 17:38 | 37.75582 | -10.48461 | 24957 ft | 464 kts | 21° |
| 2026-05-07 17:38 | 37.78479 | -10.46921 | 24956 ft | 435 kts | 21° |
| 2026-05-07 17:39 | 37.81188 | -10.45474 | 24951 ft | 412 kts | 21° |
| 2026-05-07 17:39 | 37.83743 | -10.43893 | 24936 ft | 409 kts | 33° |
| 2026-05-07 17:39 | 37.85928 | -10.41609 | 24788 ft | 409 kts | 45° |
| 2026-05-07 17:39 | 37.87920 | -10.39025 | 24370 ft | 408 kts | 45° |
| 2026-05-07 17:40 | 37.89937 | -10.36582 | 23942 ft | 405 kts | 42° |
| 2026-05-07 17:40 | 37.92050 | -10.34173 | 23481 ft | 402 kts | 42° |
| 2026-05-07 17:40 | 37.94066 | -10.31807 | 22986 ft | 399 kts | 44° |
| 2026-05-07 17:40 | 37.96034 | -10.29340 | 22479 ft | 396 kts | 46° |
| 2026-05-07 17:41 | 37.97941 | -10.26843 | 21985 ft | 393 kts | 47° |
| 2026-05-07 17:41 | 37.99822 | -10.24339 | 21511 ft | 390 kts | 47° |
| 2026-05-07 17:41 | 38.01689 | -10.21852 | 21038 ft | 387 kts | 47° |
| 2026-05-07 17:41 | 38.03538 | -10.19388 | 20564 ft | 384 kts | 47° |
| 2026-05-07 17:42 | 38.05372 | -10.16941 | 20128 ft | 381 kts | 47° |
| 2026-05-07 17:42 | 38.07189 | -10.14507 | 19700 ft | 378 kts | 47° |
| 2026-05-07 17:42 | 38.08996 | -10.12079 | 19246 ft | 376 kts | 47° |
| 2026-05-07 17:42 | 38.10768 | -10.09696 | 18848 ft | 374 kts | 47° |
| 2026-05-07 17:43 | 38.12547 | -10.07299 | 18451 ft | 372 kts | 47° |
| 2026-05-07 17:43 | 38.14321 | -10.04910 | 17999 ft | 370 kts | 47° |
| 2026-05-07 17:43 | 38.16128 | -10.02601 | 17503 ft | 367 kts | 39° |
| 2026-05-07 17:43 | 38.18270 | -10.00888 | 17023 ft | 360 kts | 23° |
| 2026-05-07 17:44 | 38.20554 | -9.99658 | 16596 ft | 355 kts | 22° |
| 2026-05-07 17:44 | 38.22778 | -9.98338 | 16167 ft | 348 kts | 26° |
| 2026-05-07 17:44 | 38.24887 | -9.96913 | 15759 ft | 339 kts | 28° |
| 2026-05-07 17:44 | 38.26949 | -9.95544 | 15356 ft | 330 kts | 26° |
| 2026-05-07 17:45 | 38.28978 | -9.94323 | 14988 ft | 322 kts | 24° |
| 2026-05-07 17:45 | 38.31015 | -9.93195 | 14616 ft | 315 kts | 23° |
| 2026-05-07 17:45 | 38.33020 | -9.92122 | 14255 ft | 308 kts | 23° |
| 2026-05-07 17:45 | 38.34970 | -9.91083 | 13917 ft | 301 kts | 24° |
| 2026-05-07 17:46 | 38.36887 | -9.90058 | 13563 ft | 295 kts | 24° |
| 2026-05-07 17:46 | 38.38762 | -9.89053 | 13192 ft | 289 kts | 24° |
| 2026-05-07 17:46 | 38.40602 | -9.88071 | 12830 ft | 284 kts | 24° |
| 2026-05-07 17:46 | 38.42411 | -9.87109 | 12480 ft | 279 kts | 24° |
| 2026-05-07 17:47 | 38.44190 | -9.86166 | 12133 ft | 275 kts | 24° |
| 2026-05-07 17:47 | 38.45942 | -9.85239 | 11813 ft | 270 kts | 24° |
| 2026-05-07 17:47 | 38.47667 | -9.84325 | 11486 ft | 266 kts | 23° |
| 2026-05-07 17:47 | 38.49367 | -9.83424 | 11187 ft | 263 kts | 23° |
| 2026-05-07 17:48 | 38.50979 | -9.82442 | 10843 ft | 258 kts | 37° |
| 2026-05-07 17:48 | 38.52172 | -9.80794 | 10470 ft | 252 kts | 65° |
| 2026-05-07 17:48 | 38.52796 | -9.78753 | 10240 ft | 243 kts | 73° |
| 2026-05-07 17:48 | 38.53468 | -9.76775 | 9965 ft | 244 kts | 64° |
| 2026-05-07 17:49 | 38.54321 | -9.74902 | 9678 ft | 244 kts | 62° |
| 2026-05-07 17:49 | 38.55130 | -9.73025 | 9446 ft | 238 kts | 66° |
| 2026-05-07 17:49 | 38.55784 | -9.71068 | 9149 ft | 240 kts | 72° |
| 2026-05-07 17:49 | 38.56307 | -9.69053 | 8853 ft | 238 kts | 76° |
| 2026-05-07 17:50 | 38.56766 | -9.67029 | 8554 ft | 236 kts | 77° |
| 2026-05-07 17:50 | 38.57206 | -9.65009 | 8264 ft | 235 kts | 77° |
| 2026-05-07 17:50 | 38.57639 | -9.63005 | 8053 ft | 234 kts | 77° |
| 2026-05-07 17:50 | 38.57988 | -9.61012 | 7970 ft | 231 kts | 88° |
| 2026-05-07 17:51 | 38.57708 | -9.59040 | 7933 ft | 225 kts | 118° |
| 2026-05-07 17:51 | 38.56807 | -9.57434 | 7978 ft | 222 kts | 137° |
| 2026-05-07 17:51 | 38.55623 | -9.56168 | 7983 ft | 221 kts | 148° |
| 2026-05-07 17:51 | 38.54301 | -9.55170 | 7955 ft | 218 kts | 156° |
| 2026-05-07 17:52 | 38.52918 | -9.54399 | 7949 ft | 217 kts | 162° |
| 2026-05-07 17:52 | 38.51515 | -9.53704 | 7943 ft | 217 kts | 159° |
| 2026-05-07 17:52 | 38.50170 | -9.52813 | 7939 ft | 218 kts | 152° |
| 2026-05-07 17:52 | 38.48893 | -9.51795 | 7937 ft | 219 kts | 150° |
| 2026-05-07 17:53 | 38.47601 | -9.50761 | 7936 ft | 219 kts | 151° |
| 2026-05-07 17:53 | 38.46297 | -9.49751 | 7941 ft | 219 kts | 152° |
| 2026-05-07 17:53 | 38.44996 | -9.48735 | 7937 ft | 219 kts | 151° |
| 2026-05-07 17:53 | 38.43715 | -9.47670 | 7938 ft | 221 kts | 146° |
| 2026-05-07 17:54 | 38.42583 | -9.46338 | 7939 ft | 223 kts | 134° |
| 2026-05-07 17:54 | 38.41624 | -9.44775 | 7940 ft | 223 kts | 130° |
| 2026-05-07 17:54 | 38.40693 | -9.43205 | 7932 ft | 221 kts | 131° |
| 2026-05-07 17:54 | 38.39727 | -9.41675 | 7939 ft | 221 kts | 133° |
| 2026-05-07 17:55 | 38.38775 | -9.40166 | 7938 ft | 221 kts | 131° |
| 2026-05-07 17:55 | 38.37840 | -9.38577 | 7937 ft | 222 kts | 127° |
| 2026-05-07 17:55 | 38.37118 | -9.36824 | 7938 ft | 225 kts | 115° |
| 2026-05-07 17:55 | 38.36665 | -9.34929 | 7942 ft | 227 kts | 108° |
| 2026-05-07 17:56 | 38.36266 | -9.32983 | 7935 ft | 226 kts | 110° |
| 2026-05-07 17:56 | 38.35821 | -9.31060 | 7935 ft | 226 kts | 110° |
| 2026-05-07 17:56 | 38.35369 | -9.29139 | 7938 ft | 226 kts | 109° |
| 2026-05-07 17:56 | 38.34962 | -9.27202 | 7933 ft | 227 kts | 106° |
| 2026-05-07 17:57 | 38.34793 | -9.25190 | 7935 ft | 231 kts | 92° |
| 2026-05-07 17:57 | 38.34869 | -9.23805 | 7935 ft | 233 kts | 87° |
| 2026-05-07 17:57 | 38.35154 | -9.21091 | 7932 ft | 233 kts | 86° |
| 2026-05-07 17:57 | 38.35322 | -9.19039 | 7933 ft | 232 kts | 87° |
| 2026-05-07 17:58 | 38.35485 | -9.16991 | 7934 ft | 232 kts | 87° |
| 2026-05-07 17:58 | 38.35696 | -9.14948 | 7932 ft | 233 kts | 82° |
| 2026-05-07 17:58 | 38.36399 | -9.13080 | 7870 ft | 238 kts | 50° |
| 2026-05-07 17:58 | 38.37766 | -9.11934 | 7875 ft | 238 kts | 17° |
| 2026-05-07 17:59 | 38.39397 | -9.11847 | 7918 ft | 236 kts | 343° |
| 2026-05-07 17:59 | 38.40815 | -9.12769 | 7965 ft | 232 kts | 320° |
| 2026-05-07 17:59 | 38.42030 | -9.14154 | 7958 ft | 232 kts | 312° |
| 2026-05-07 17:59 | 38.43138 | -9.15619 | 7747 ft | 232 kts | 309° |
| 2026-05-07 18:00 | 38.44228 | -9.17120 | 7460 ft | 229 kts | 309° |
| 2026-05-07 18:00 | 38.45294 | -9.18608 | 7192 ft | 226 kts | 309° |
| 2026-05-07 18:00 | 38.46351 | -9.20089 | 6925 ft | 224 kts | 308° |
| 2026-05-07 18:00 | 38.47193 | -9.21712 | 6616 ft | 217 kts | 291° |
| 2026-05-07 18:01 | 38.48112 | -9.23248 | 6313 ft | 224 kts | 321° |
| 2026-05-07 18:01 | 38.49563 | -9.23965 | 6016 ft | 227 kts | 347° |
| 2026-05-07 18:01 | 38.51149 | -9.24109 | 5769 ft | 229 kts | 359° |
| 2026-05-07 18:01 | 38.52717 | -9.23911 | 5502 ft | 220 kts | 6° |
| 2026-05-07 18:02 | 38.55575 | -9.23250 | 4985 ft | 203 kts | 8° |
| 2026-05-07 18:02 | 38.56929 | -9.22887 | 5034 ft | 198 kts | 8° |
| 2026-05-07 18:02 | 38.58297 | -9.22522 | 4976 ft | 200 kts | 9° |
| 2026-05-07 18:03 | 38.59649 | -9.22158 | 5075 ft | 198 kts | 9° |
| 2026-05-07 18:03 | 38.60989 | -9.21788 | 5184 ft | 191 kts | 9° |
| 2026-05-07 18:03 | 38.62274 | -9.21426 | 5325 ft | 190 kts | 9° |
| 2026-05-07 18:03 | 38.63598 | -9.21231 | 5332 ft | 196 kts | 6° |
| 2026-05-07 18:04 | 38.64909 | -9.20697 | 4927 ft | 198 kts | 21° |
| 2026-05-07 18:04 | 38.66129 | -9.19973 | 4494 ft | 191 kts | 21° |
| 2026-05-07 18:04 | 38.67339 | -9.19328 | 3911 ft | 183 kts | 18° |
| 2026-05-07 18:04 | 38.68449 | -9.18745 | 3358 ft | 166 kts | 18° |
| 2026-05-07 18:05 | 38.69473 | -9.18199 | 2850 ft | 153 kts | 17° |
| 2026-05-07 18:05 | 38.70459 | -9.17678 | 2410 ft | 158 kts | 17° |
| 2026-05-07 18:05 | 38.71497 | -9.17128 | 2048 ft | 164 kts | 17° |
| 2026-05-07 18:05 | 38.72561 | -9.16557 | 1500 ft | 165 kts | 18° |
| 2026-05-07 18:06 | 38.73602 | -9.16004 | 1144 ft | 159 kts | 18° |
| 2026-05-07 18:06 | 38.74623 | -9.15458 | 835 ft | 154 kts | 17° |
| 2026-05-07 18:06 | 38.75563 | -9.14965 | 628 ft | 143 kts | 18° |
| 2026-05-07 18:06 | 38.76174 | -9.14645 | 488 ft | 142 kts | 19° |
| 2026-05-07 18:07 | 38.77053 | -9.14164 | 362 ft | 128 kts | 17° |
| 2026-05-07 18:07 | 38.77735 | -9.13807 | 373 ft | 84 kts | 19° |
| 2026-05-07 18:07 | 38.78163 | -9.13574 | 375 ft | 54 kts | 22° |
| 2026-05-07 18:07 | 38.78433 | -9.13434 | 373 ft | 32 kts | 21° |
| 2026-05-07 18:08 | 38.78528 | -9.13273 | 371 ft | 16 kts | 123° |
| 2026-05-07 18:08 | 38.78466 | -9.13230 | 368 ft | 12 kts | 164° |
| 2026-05-07 18:08 | 38.78389 | -9.13232 | 366 ft | 10 kts | 196° |
| 2026-05-07 18:08 | 38.78310 | -9.13271 | 368 ft | 13 kts | 202° |
| 2026-05-07 18:09 | 38.78230 | -9.13312 | 365 ft | 9 kts | 201° |
| 2026-05-07 18:09 | 38.78185 | -9.13335 | 369 ft | 6 kts | 201° |
| 2026-05-07 18:09 | 38.78140 | -9.13360 | 367 ft | 8 kts | 202° |
| 2026-05-07 18:09 | 38.78076 | -9.13394 | 369 ft | 12 kts | 202° |
| 2026-05-07 18:10 | 38.78006 | -9.13412 | 365 ft | 12 kts | 171° |
| 2026-05-07 18:10 | 38.77934 | -9.13393 | 363 ft | 11 kts | 168° |
| 2026-05-07 18:10 | 38.77871 | -9.13376 | 354 ft | 7 kts | 167° |
| 2026-05-07 18:10 | 38.77858 | -9.13372 | 356 ft | 2 kts | 167° |
| 2026-05-07 18:11 | 38.77854 | -9.13371 | 357 ft | 0 kts | 167° |
| 2026-05-07 18:11 | 38.77853 | -9.13371 | 353 ft | 1 kts | 167° |
| 2026-05-07 18:11 | 38.77824 | -9.13363 | 354 ft | 7 kts | 168° |
| 2026-05-07 18:11 | 38.77777 | -9.13351 | 356 ft | 6 kts | 168° |
| 2026-05-07 18:12 | 38.77731 | -9.13318 | 351 ft | 11 kts | 106° |
| 2026-05-07 18:12 | 38.77743 | -9.13248 | 348 ft | 9 kts | 77° |
| 2026-05-07 18:12 | 38.77758 | -9.13155 | 345 ft | 10 kts | 78° |
| 2026-05-07 18:12 | 38.77774 | -9.13068 | 347 ft | 12 kts | 72° |
| 2026-05-07 18:13 | 38.77819 | -9.12992 | 331 ft | 9 kts | 38° |
| 2026-05-07 18:13 | 38.77881 | -9.12938 | 331 ft | 10 kts | 34° |
| 2026-05-07 18:13 | 38.77936 | -9.12890 | 334 ft | 7 kts | 34° |
| 2026-05-07 18:13 | 38.77978 | -9.12859 | 332 ft | 5 kts | 19° |
| 2026-05-07 18:14 | 38.77997 | -9.12875 | 331 ft | 3 kts | 313° |
| 2026-05-07 18:14 | 38.78010 | -9.12896 | 331 ft | 3 kts | 307° |
| 2026-05-07 18:14 | 38.78018 | -9.12910 | 331 ft | 2 kts | 304° |
| 2026-05-07 18:14 | 38.78021 | -9.12916 | 332 ft | 1 kts | 304° |
| 2026-05-07 18:15 | 38.78022 | -9.12918 | 332 ft | 0 kts | 304° |